<?xml version="1.0" encoding="UTF-8" standalone="no" ?>
<gpx xmlns="http://www.topografix.com/GPX/1/1" xmlns:xsi="http://www.w3.org/2001/XMLSchema-instance" xsi:schemaLocation="http://www.topografix.com/GPX/1/1 http://www.topografix.com/GPX/1/1/gpx.xsd" version="1.1" creator="VisuGPX - https://www.visugpx.com">
  <metadata>
    <name>Fontaine de Termenou</name>
  </metadata>
  <wpt lat="43.75133" lon="3.71706">
    <ele>249</ele>
    <name><![CDATA[Domaine de Roussières]]></name>
  </wpt>
  <wpt lat="43.75437" lon="3.71344">
    <ele>250</ele>
    <name><![CDATA[Aven]]></name>
  </wpt>
  <wpt lat="43.75384" lon="3.7057">
    <ele>258</ele>
    <name><![CDATA[Carrefour des 4 chemins, à droite]]></name>
  </wpt>
  <wpt lat="43.75515" lon="3.70655">
    <ele>269</ele>
    <name><![CDATA[Dolmen de la Draille]]></name>
  </wpt>
  <wpt lat="43.75593" lon="3.70811">
    <ele>268</ele>
    <name><![CDATA[Tombes du Néolithique]]></name>
  </wpt>
  <wpt lat="43.76458" lon="3.70563">
    <ele>286</ele>
    <name><![CDATA[Carrefour en Y, suivre à droite le chemin montant]]></name>
  </wpt>
  <wpt lat="43.76892" lon="3.72528">
    <ele>258</ele>
    <name><![CDATA[Intersection avec RD 32]]></name>
  </wpt>
  <wpt lat="43.77246" lon="3.73682">
    <ele>285</ele>
    <name><![CDATA[Fontaine de Termenou]]></name>
  </wpt>
  <wpt lat="43.76623" lon="3.73763">
    <ele>262</ele>
    <name><![CDATA[Carrefour du petit cairn, à gauche]]></name>
  </wpt>
  <wpt lat="43.75794" lon="3.73252">
    <ele>259</ele>
    <name><![CDATA[Sortie sous-bois, jonction piste]]></name>
  </wpt>
  <wpt lat="43.75563" lon="3.73218">
    <ele>267</ele>
    <name><![CDATA[Village préhistorique de Cambous]]></name>
  </wpt>
  <wpt lat="43.75556" lon="3.7272">
    <ele>256</ele>
    <name><![CDATA[Lavogne, à gauche]]></name>
  </wpt>
  <wpt lat="43.75455" lon="3.72654">
    <ele>256</ele>
    <name><![CDATA[Angle mur d'enceinte propriété]]></name>
  </wpt>
  <wpt lat="43.75231" lon="3.71796">
    <ele>252</ele>
    <name><![CDATA[Domaine départemental de Roussières]]></name>
  </wpt>
  <wpt lat="43.75136" lon="3.71717">
    <ele>249</ele>
    <name><![CDATA[Domaine de Roussières]]></name>
  </wpt>
  <trk>
    <name><![CDATA[Fontaine de Termenou]]></name>
    <trkseg>
      <trkpt lat="43.75133" lon="3.71706">
        <ele>249</ele>
        <time>2021-10-19T14:52:05+02:00</time>
      </trkpt>
      <trkpt lat="43.75127" lon="3.71668">
        <ele>247</ele>
        <time>2021-10-19T14:52:10+02:00</time>
      </trkpt>
      <trkpt lat="43.75147" lon="3.71645">
        <ele>248</ele>
        <time>2021-10-19T14:52:15+02:00</time>
      </trkpt>
      <trkpt lat="43.75156" lon="3.71638">
        <ele>248</ele>
        <time>2021-10-19T14:52:20+02:00</time>
      </trkpt>
      <trkpt lat="43.75163" lon="3.71635">
        <ele>248</ele>
        <time>2021-10-19T14:52:25+02:00</time>
      </trkpt>
      <trkpt lat="43.75174" lon="3.71636">
        <ele>249</ele>
        <time>2021-10-19T14:52:30+02:00</time>
      </trkpt>
      <trkpt lat="43.75185" lon="3.71636">
        <ele>249</ele>
        <time>2021-10-19T14:52:35+02:00</time>
      </trkpt>
      <trkpt lat="43.75194" lon="3.71634">
        <ele>249</ele>
        <time>2021-10-19T14:52:40+02:00</time>
      </trkpt>
      <trkpt lat="43.75202" lon="3.71629">
        <ele>249</ele>
        <time>2021-10-19T14:52:45+02:00</time>
      </trkpt>
      <trkpt lat="43.75213" lon="3.71627">
        <ele>249</ele>
        <time>2021-10-19T14:52:50+02:00</time>
      </trkpt>
      <trkpt lat="43.75236" lon="3.71624">
        <ele>249</ele>
        <time>2021-10-19T14:52:55+02:00</time>
      </trkpt>
      <trkpt lat="43.75269" lon="3.71619">
        <ele>249</ele>
        <time>2021-10-19T14:53:00+02:00</time>
      </trkpt>
      <trkpt lat="43.7529" lon="3.71617">
        <ele>248</ele>
        <time>2021-10-19T14:53:05+02:00</time>
      </trkpt>
      <trkpt lat="43.75303" lon="3.71613">
        <ele>248</ele>
        <time>2021-10-19T14:53:10+02:00</time>
      </trkpt>
      <trkpt lat="43.7531" lon="3.71607">
        <ele>247</ele>
        <time>2021-10-19T14:53:15+02:00</time>
      </trkpt>
      <trkpt lat="43.75316" lon="3.71602">
        <ele>247</ele>
        <time>2021-10-19T14:53:20+02:00</time>
      </trkpt>
      <trkpt lat="43.75321" lon="3.71598">
        <ele>247</ele>
        <time>2021-10-19T14:53:25+02:00</time>
      </trkpt>
      <trkpt lat="43.75337" lon="3.71602">
        <ele>247</ele>
        <time>2021-10-19T14:53:30+02:00</time>
      </trkpt>
      <trkpt lat="43.75347" lon="3.71597">
        <ele>247</ele>
        <time>2021-10-19T14:53:35+02:00</time>
      </trkpt>
      <trkpt lat="43.75355" lon="3.71595">
        <ele>247</ele>
        <time>2021-10-19T14:53:40+02:00</time>
      </trkpt>
      <trkpt lat="43.75362" lon="3.71596">
        <ele>248</ele>
        <time>2021-10-19T14:53:45+02:00</time>
      </trkpt>
      <trkpt lat="43.75368" lon="3.71594">
        <ele>248</ele>
        <time>2021-10-19T14:53:50+02:00</time>
      </trkpt>
      <trkpt lat="43.75377" lon="3.71587">
        <ele>248</ele>
        <time>2021-10-19T14:53:55+02:00</time>
      </trkpt>
      <trkpt lat="43.75383" lon="3.71578">
        <ele>248</ele>
        <time>2021-10-19T14:54:00+02:00</time>
      </trkpt>
      <trkpt lat="43.75389" lon="3.71568">
        <ele>248</ele>
        <time>2021-10-19T14:54:05+02:00</time>
      </trkpt>
      <trkpt lat="43.75393" lon="3.71557">
        <ele>249</ele>
        <time>2021-10-19T14:54:10+02:00</time>
      </trkpt>
      <trkpt lat="43.75402" lon="3.71539">
        <ele>249</ele>
        <time>2021-10-19T14:54:15+02:00</time>
      </trkpt>
      <trkpt lat="43.75406" lon="3.71528">
        <ele>249</ele>
        <time>2021-10-19T14:54:20+02:00</time>
      </trkpt>
      <trkpt lat="43.75409" lon="3.7152">
        <ele>249</ele>
        <time>2021-10-19T14:54:25+02:00</time>
      </trkpt>
      <trkpt lat="43.75412" lon="3.7151">
        <ele>249</ele>
        <time>2021-10-19T14:54:30+02:00</time>
      </trkpt>
      <trkpt lat="43.75413" lon="3.71499">
        <ele>249</ele>
        <time>2021-10-19T14:54:35+02:00</time>
      </trkpt>
      <trkpt lat="43.75415" lon="3.71487">
        <ele>249</ele>
        <time>2021-10-19T14:54:40+02:00</time>
      </trkpt>
      <trkpt lat="43.75415" lon="3.71473">
        <ele>249</ele>
        <time>2021-10-19T14:54:45+02:00</time>
      </trkpt>
      <trkpt lat="43.75414" lon="3.71459">
        <ele>249</ele>
        <time>2021-10-19T14:54:50+02:00</time>
      </trkpt>
      <trkpt lat="43.75413" lon="3.71446">
        <ele>249</ele>
        <time>2021-10-19T14:54:55+02:00</time>
      </trkpt>
      <trkpt lat="43.75413" lon="3.71431">
        <ele>249</ele>
        <time>2021-10-19T14:55:00+02:00</time>
      </trkpt>
      <trkpt lat="43.75413" lon="3.71421">
        <ele>249</ele>
        <time>2021-10-19T14:55:05+02:00</time>
      </trkpt>
      <trkpt lat="43.75413" lon="3.71403">
        <ele>249</ele>
        <time>2021-10-19T14:55:10+02:00</time>
      </trkpt>
      <trkpt lat="43.75414" lon="3.7139">
        <ele>249</ele>
        <time>2021-10-19T14:55:15+02:00</time>
      </trkpt>
      <trkpt lat="43.75421" lon="3.71375">
        <ele>249</ele>
        <time>2021-10-19T14:55:20+02:00</time>
      </trkpt>
      <trkpt lat="43.75429" lon="3.7136">
        <ele>250</ele>
        <time>2021-10-19T14:55:25+02:00</time>
      </trkpt>
      <trkpt lat="43.75437" lon="3.71344">
        <ele>250</ele>
        <time>2021-10-19T14:55:30+02:00</time>
      </trkpt>
      <trkpt lat="43.75447" lon="3.7133">
        <ele>251</ele>
        <time>2021-10-19T14:55:35+02:00</time>
      </trkpt>
      <trkpt lat="43.75454" lon="3.71318">
        <ele>251</ele>
        <time>2021-10-19T14:55:40+02:00</time>
      </trkpt>
      <trkpt lat="43.75458" lon="3.71308">
        <ele>251</ele>
        <time>2021-10-19T14:55:45+02:00</time>
      </trkpt>
      <trkpt lat="43.7546" lon="3.71301">
        <ele>252</ele>
        <time>2021-10-19T14:55:50+02:00</time>
      </trkpt>
      <trkpt lat="43.75456" lon="3.71292">
        <ele>252</ele>
        <time>2021-10-19T14:55:55+02:00</time>
      </trkpt>
      <trkpt lat="43.75447" lon="3.71271">
        <ele>252</ele>
        <time>2021-10-19T14:56:00+02:00</time>
      </trkpt>
      <trkpt lat="43.75439" lon="3.71249">
        <ele>252</ele>
        <time>2021-10-19T14:56:05+02:00</time>
      </trkpt>
      <trkpt lat="43.75431" lon="3.71225">
        <ele>253</ele>
        <time>2021-10-19T14:56:10+02:00</time>
      </trkpt>
      <trkpt lat="43.75423" lon="3.71208">
        <ele>253</ele>
        <time>2021-10-19T14:56:15+02:00</time>
      </trkpt>
      <trkpt lat="43.75417" lon="3.71192">
        <ele>253</ele>
        <time>2021-10-19T14:56:20+02:00</time>
      </trkpt>
      <trkpt lat="43.75412" lon="3.7117">
        <ele>253</ele>
        <time>2021-10-19T14:56:25+02:00</time>
      </trkpt>
      <trkpt lat="43.75408" lon="3.71146">
        <ele>252</ele>
        <time>2021-10-19T14:56:30+02:00</time>
      </trkpt>
      <trkpt lat="43.75405" lon="3.71126">
        <ele>252</ele>
        <time>2021-10-19T14:56:35+02:00</time>
      </trkpt>
      <trkpt lat="43.75403" lon="3.71105">
        <ele>252</ele>
        <time>2021-10-19T14:56:40+02:00</time>
      </trkpt>
      <trkpt lat="43.75403" lon="3.71086">
        <ele>253</ele>
        <time>2021-10-19T14:56:45+02:00</time>
      </trkpt>
      <trkpt lat="43.75404" lon="3.71065">
        <ele>253</ele>
        <time>2021-10-19T14:56:50+02:00</time>
      </trkpt>
      <trkpt lat="43.75406" lon="3.7105">
        <ele>253</ele>
        <time>2021-10-19T14:56:55+02:00</time>
      </trkpt>
      <trkpt lat="43.75409" lon="3.71039">
        <ele>253</ele>
        <time>2021-10-19T14:57:00+02:00</time>
      </trkpt>
      <trkpt lat="43.75411" lon="3.71029">
        <ele>253</ele>
        <time>2021-10-19T14:57:05+02:00</time>
      </trkpt>
      <trkpt lat="43.75414" lon="3.71015">
        <ele>254</ele>
        <time>2021-10-19T14:57:10+02:00</time>
      </trkpt>
      <trkpt lat="43.75413" lon="3.71001">
        <ele>254</ele>
        <time>2021-10-19T14:57:15+02:00</time>
      </trkpt>
      <trkpt lat="43.75411" lon="3.70984">
        <ele>254</ele>
        <time>2021-10-19T14:57:20+02:00</time>
      </trkpt>
      <trkpt lat="43.75407" lon="3.70971">
        <ele>254</ele>
        <time>2021-10-19T14:57:25+02:00</time>
      </trkpt>
      <trkpt lat="43.75404" lon="3.70956">
        <ele>254</ele>
        <time>2021-10-19T14:57:30+02:00</time>
      </trkpt>
      <trkpt lat="43.754" lon="3.70923">
        <ele>255</ele>
        <time>2021-10-19T14:57:35+02:00</time>
      </trkpt>
      <trkpt lat="43.75397" lon="3.70896">
        <ele>255</ele>
        <time>2021-10-19T14:57:40+02:00</time>
      </trkpt>
      <trkpt lat="43.75394" lon="3.70872">
        <ele>255</ele>
        <time>2021-10-19T14:57:45+02:00</time>
      </trkpt>
      <trkpt lat="43.75392" lon="3.70855">
        <ele>255</ele>
        <time>2021-10-19T14:57:50+02:00</time>
      </trkpt>
      <trkpt lat="43.7539" lon="3.70832">
        <ele>255</ele>
        <time>2021-10-19T14:57:55+02:00</time>
      </trkpt>
      <trkpt lat="43.75387" lon="3.70813">
        <ele>255</ele>
        <time>2021-10-19T14:58:00+02:00</time>
      </trkpt>
      <trkpt lat="43.75385" lon="3.70786">
        <ele>256</ele>
        <time>2021-10-19T14:58:05+02:00</time>
      </trkpt>
      <trkpt lat="43.75382" lon="3.70754">
        <ele>256</ele>
        <time>2021-10-19T14:58:10+02:00</time>
      </trkpt>
      <trkpt lat="43.7538" lon="3.70728">
        <ele>255</ele>
        <time>2021-10-19T14:58:15+02:00</time>
      </trkpt>
      <trkpt lat="43.75379" lon="3.70705">
        <ele>255</ele>
        <time>2021-10-19T14:58:20+02:00</time>
      </trkpt>
      <trkpt lat="43.75377" lon="3.70671">
        <ele>255</ele>
        <time>2021-10-19T14:58:25+02:00</time>
      </trkpt>
      <trkpt lat="43.75376" lon="3.70645">
        <ele>256</ele>
        <time>2021-10-19T14:58:30+02:00</time>
      </trkpt>
      <trkpt lat="43.75375" lon="3.70611">
        <ele>256</ele>
        <time>2021-10-19T14:58:35+02:00</time>
      </trkpt>
      <trkpt lat="43.75376" lon="3.70591">
        <ele>256</ele>
        <time>2021-10-19T14:58:40+02:00</time>
      </trkpt>
      <trkpt lat="43.7538" lon="3.70578">
        <ele>257</ele>
        <time>2021-10-19T14:58:45+02:00</time>
      </trkpt>
      <trkpt lat="43.75384" lon="3.7057">
        <ele>258</ele>
        <time>2021-10-19T14:58:50+02:00</time>
      </trkpt>
      <trkpt lat="43.7539" lon="3.70572">
        <ele>258</ele>
        <time>2021-10-19T14:58:55+02:00</time>
      </trkpt>
      <trkpt lat="43.75394" lon="3.7058">
        <ele>259</ele>
        <time>2021-10-19T14:59:00+02:00</time>
      </trkpt>
      <trkpt lat="43.75401" lon="3.70584">
        <ele>259</ele>
        <time>2021-10-19T14:59:05+02:00</time>
      </trkpt>
      <trkpt lat="43.75411" lon="3.70588">
        <ele>260</ele>
        <time>2021-10-19T14:59:10+02:00</time>
      </trkpt>
      <trkpt lat="43.7542" lon="3.7059">
        <ele>261</ele>
        <time>2021-10-19T14:59:15+02:00</time>
      </trkpt>
      <trkpt lat="43.75427" lon="3.70593">
        <ele>262</ele>
        <time>2021-10-19T14:59:20+02:00</time>
      </trkpt>
      <trkpt lat="43.75436" lon="3.70598">
        <ele>263</ele>
        <time>2021-10-19T14:59:25+02:00</time>
      </trkpt>
      <trkpt lat="43.75442" lon="3.70602">
        <ele>263</ele>
        <time>2021-10-19T14:59:30+02:00</time>
      </trkpt>
      <trkpt lat="43.75452" lon="3.7061">
        <ele>264</ele>
        <time>2021-10-19T14:59:35+02:00</time>
      </trkpt>
      <trkpt lat="43.75461" lon="3.70617">
        <ele>265</ele>
        <time>2021-10-19T14:59:40+02:00</time>
      </trkpt>
      <trkpt lat="43.75471" lon="3.70625">
        <ele>266</ele>
        <time>2021-10-19T14:59:45+02:00</time>
      </trkpt>
      <trkpt lat="43.75477" lon="3.70632">
        <ele>266</ele>
        <time>2021-10-19T14:59:50+02:00</time>
      </trkpt>
      <trkpt lat="43.75485" lon="3.70637">
        <ele>267</ele>
        <time>2021-10-19T14:59:55+02:00</time>
      </trkpt>
      <trkpt lat="43.75491" lon="3.70641">
        <ele>267</ele>
        <time>2021-10-19T15:00:00+02:00</time>
      </trkpt>
      <trkpt lat="43.75497" lon="3.70647">
        <ele>268</ele>
        <time>2021-10-19T15:00:05+02:00</time>
      </trkpt>
      <trkpt lat="43.75504" lon="3.7065">
        <ele>268</ele>
        <time>2021-10-19T15:00:10+02:00</time>
      </trkpt>
      <trkpt lat="43.75509" lon="3.70651">
        <ele>269</ele>
        <time>2021-10-19T15:00:15+02:00</time>
      </trkpt>
      <trkpt lat="43.75512" lon="3.7065">
        <ele>269</ele>
        <time>2021-10-19T15:00:20+02:00</time>
      </trkpt>
      <trkpt lat="43.75515" lon="3.70655">
        <ele>269</ele>
        <time>2021-10-19T15:00:25+02:00</time>
      </trkpt>
      <trkpt lat="43.75519" lon="3.70654">
        <ele>269</ele>
        <time>2021-10-19T15:00:30+02:00</time>
      </trkpt>
      <trkpt lat="43.75522" lon="3.70654">
        <ele>270</ele>
        <time>2021-10-19T15:00:35+02:00</time>
      </trkpt>
      <trkpt lat="43.75526" lon="3.70657">
        <ele>270</ele>
        <time>2021-10-19T15:00:40+02:00</time>
      </trkpt>
      <trkpt lat="43.75532" lon="3.70662">
        <ele>270</ele>
        <time>2021-10-19T15:00:45+02:00</time>
      </trkpt>
      <trkpt lat="43.75538" lon="3.70663">
        <ele>270</ele>
        <time>2021-10-19T15:00:50+02:00</time>
      </trkpt>
      <trkpt lat="43.75546" lon="3.70669">
        <ele>271</ele>
        <time>2021-10-19T15:00:55+02:00</time>
      </trkpt>
      <trkpt lat="43.75556" lon="3.70673">
        <ele>271</ele>
        <time>2021-10-19T15:01:00+02:00</time>
      </trkpt>
      <trkpt lat="43.75568" lon="3.70678">
        <ele>272</ele>
        <time>2021-10-19T15:01:05+02:00</time>
      </trkpt>
      <trkpt lat="43.75576" lon="3.70677">
        <ele>272</ele>
        <time>2021-10-19T15:01:10+02:00</time>
      </trkpt>
      <trkpt lat="43.7558" lon="3.70676">
        <ele>272</ele>
        <time>2021-10-19T15:01:15+02:00</time>
      </trkpt>
      <trkpt lat="43.75584" lon="3.70677">
        <ele>273</ele>
        <time>2021-10-19T15:01:20+02:00</time>
      </trkpt>
      <trkpt lat="43.75583" lon="3.70691">
        <ele>272</ele>
        <time>2021-10-19T15:01:25+02:00</time>
      </trkpt>
      <trkpt lat="43.7558" lon="3.70705">
        <ele>271</ele>
        <time>2021-10-19T15:01:30+02:00</time>
      </trkpt>
      <trkpt lat="43.75578" lon="3.70717">
        <ele>271</ele>
        <time>2021-10-19T15:01:35+02:00</time>
      </trkpt>
      <trkpt lat="43.75574" lon="3.70726">
        <ele>271</ele>
        <time>2021-10-19T15:01:40+02:00</time>
      </trkpt>
      <trkpt lat="43.75568" lon="3.70736">
        <ele>270</ele>
        <time>2021-10-19T15:01:45+02:00</time>
      </trkpt>
      <trkpt lat="43.75564" lon="3.70748">
        <ele>270</ele>
        <time>2021-10-19T15:01:50+02:00</time>
      </trkpt>
      <trkpt lat="43.7556" lon="3.70759">
        <ele>269</ele>
        <time>2021-10-19T15:01:55+02:00</time>
      </trkpt>
      <trkpt lat="43.75555" lon="3.70768">
        <ele>269</ele>
        <time>2021-10-19T15:02:00+02:00</time>
      </trkpt>
      <trkpt lat="43.7555" lon="3.70778">
        <ele>268</ele>
        <time>2021-10-19T15:02:05+02:00</time>
      </trkpt>
      <trkpt lat="43.75549" lon="3.70779">
        <ele>268</ele>
        <time>2021-10-19T15:02:10+02:00</time>
      </trkpt>
      <trkpt lat="43.75545" lon="3.70779">
        <ele>268</ele>
        <time>2021-10-19T15:02:15+02:00</time>
      </trkpt>
      <trkpt lat="43.75541" lon="3.70779">
        <ele>268</ele>
        <time>2021-10-19T15:02:20+02:00</time>
      </trkpt>
      <trkpt lat="43.75537" lon="3.7078">
        <ele>268</ele>
        <time>2021-10-19T15:02:25+02:00</time>
      </trkpt>
      <trkpt lat="43.75537" lon="3.70783">
        <ele>268</ele>
        <time>2021-10-19T15:02:30+02:00</time>
      </trkpt>
      <trkpt lat="43.75539" lon="3.70785">
        <ele>268</ele>
        <time>2021-10-19T15:02:35+02:00</time>
      </trkpt>
      <trkpt lat="43.75549" lon="3.70782">
        <ele>268</ele>
        <time>2021-10-19T15:02:40+02:00</time>
      </trkpt>
      <trkpt lat="43.75551" lon="3.70786">
        <ele>268</ele>
        <time>2021-10-19T15:02:45+02:00</time>
      </trkpt>
      <trkpt lat="43.75554" lon="3.70791">
        <ele>268</ele>
        <time>2021-10-19T15:02:50+02:00</time>
      </trkpt>
      <trkpt lat="43.75556" lon="3.70793">
        <ele>268</ele>
        <time>2021-10-19T15:02:55+02:00</time>
      </trkpt>
      <trkpt lat="43.7556" lon="3.70794">
        <ele>268</ele>
        <time>2021-10-19T15:03:00+02:00</time>
      </trkpt>
      <trkpt lat="43.75564" lon="3.70794">
        <ele>268</ele>
        <time>2021-10-19T15:03:05+02:00</time>
      </trkpt>
      <trkpt lat="43.75568" lon="3.70797">
        <ele>268</ele>
        <time>2021-10-19T15:03:10+02:00</time>
      </trkpt>
      <trkpt lat="43.75573" lon="3.70801">
        <ele>268</ele>
        <time>2021-10-19T15:03:15+02:00</time>
      </trkpt>
      <trkpt lat="43.75577" lon="3.70802">
        <ele>268</ele>
        <time>2021-10-19T15:03:20+02:00</time>
      </trkpt>
      <trkpt lat="43.75581" lon="3.70803">
        <ele>268</ele>
        <time>2021-10-19T15:03:25+02:00</time>
      </trkpt>
      <trkpt lat="43.75584" lon="3.70805">
        <ele>268</ele>
        <time>2021-10-19T15:03:30+02:00</time>
      </trkpt>
      <trkpt lat="43.75589" lon="3.70807">
        <ele>268</ele>
        <time>2021-10-19T15:03:35+02:00</time>
      </trkpt>
      <trkpt lat="43.75591" lon="3.70811">
        <ele>268</ele>
        <time>2021-10-19T15:03:40+02:00</time>
      </trkpt>
      <trkpt lat="43.75593" lon="3.70811">
        <ele>268</ele>
        <time>2021-10-19T15:03:45+02:00</time>
      </trkpt>
      <trkpt lat="43.75589" lon="3.70804">
        <ele>268</ele>
        <time>2021-10-19T15:03:50+02:00</time>
      </trkpt>
      <trkpt lat="43.75582" lon="3.70802">
        <ele>268</ele>
        <time>2021-10-19T15:03:55+02:00</time>
      </trkpt>
      <trkpt lat="43.75574" lon="3.70799">
        <ele>268</ele>
        <time>2021-10-19T15:04:00+02:00</time>
      </trkpt>
      <trkpt lat="43.75569" lon="3.70796">
        <ele>268</ele>
        <time>2021-10-19T15:04:05+02:00</time>
      </trkpt>
      <trkpt lat="43.75565" lon="3.70793">
        <ele>268</ele>
        <time>2021-10-19T15:04:10+02:00</time>
      </trkpt>
      <trkpt lat="43.7556" lon="3.70792">
        <ele>268</ele>
        <time>2021-10-19T15:04:15+02:00</time>
      </trkpt>
      <trkpt lat="43.75556" lon="3.7079">
        <ele>268</ele>
        <time>2021-10-19T15:04:20+02:00</time>
      </trkpt>
      <trkpt lat="43.75553" lon="3.70786">
        <ele>268</ele>
        <time>2021-10-19T15:04:25+02:00</time>
      </trkpt>
      <trkpt lat="43.75551" lon="3.70781">
        <ele>268</ele>
        <time>2021-10-19T15:04:30+02:00</time>
      </trkpt>
      <trkpt lat="43.75551" lon="3.70778">
        <ele>268</ele>
        <time>2021-10-19T15:04:35+02:00</time>
      </trkpt>
      <trkpt lat="43.75555" lon="3.70771">
        <ele>269</ele>
        <time>2021-10-19T15:04:40+02:00</time>
      </trkpt>
      <trkpt lat="43.75559" lon="3.70765">
        <ele>269</ele>
        <time>2021-10-19T15:04:45+02:00</time>
      </trkpt>
      <trkpt lat="43.75564" lon="3.70756">
        <ele>269</ele>
        <time>2021-10-19T15:04:50+02:00</time>
      </trkpt>
      <trkpt lat="43.75566" lon="3.7075">
        <ele>270</ele>
        <time>2021-10-19T15:04:55+02:00</time>
      </trkpt>
      <trkpt lat="43.75569" lon="3.70741">
        <ele>270</ele>
        <time>2021-10-19T15:05:00+02:00</time>
      </trkpt>
      <trkpt lat="43.75572" lon="3.70732">
        <ele>270</ele>
        <time>2021-10-19T15:05:05+02:00</time>
      </trkpt>
      <trkpt lat="43.75575" lon="3.70727">
        <ele>271</ele>
        <time>2021-10-19T15:05:10+02:00</time>
      </trkpt>
      <trkpt lat="43.75579" lon="3.70718">
        <ele>271</ele>
        <time>2021-10-19T15:05:15+02:00</time>
      </trkpt>
      <trkpt lat="43.7558" lon="3.70711">
        <ele>271</ele>
        <time>2021-10-19T15:05:20+02:00</time>
      </trkpt>
      <trkpt lat="43.75582" lon="3.70702">
        <ele>272</ele>
        <time>2021-10-19T15:05:25+02:00</time>
      </trkpt>
      <trkpt lat="43.75584" lon="3.70697">
        <ele>272</ele>
        <time>2021-10-19T15:05:30+02:00</time>
      </trkpt>
      <trkpt lat="43.75585" lon="3.70686">
        <ele>272</ele>
        <time>2021-10-19T15:05:35+02:00</time>
      </trkpt>
      <trkpt lat="43.75586" lon="3.70678">
        <ele>273</ele>
        <time>2021-10-19T15:05:40+02:00</time>
      </trkpt>
      <trkpt lat="43.75592" lon="3.7068">
        <ele>273</ele>
        <time>2021-10-19T15:05:45+02:00</time>
      </trkpt>
      <trkpt lat="43.75601" lon="3.70682">
        <ele>273</ele>
        <time>2021-10-19T15:05:50+02:00</time>
      </trkpt>
      <trkpt lat="43.7561" lon="3.70683">
        <ele>274</ele>
        <time>2021-10-19T15:05:55+02:00</time>
      </trkpt>
      <trkpt lat="43.7562" lon="3.70685">
        <ele>274</ele>
        <time>2021-10-19T15:06:00+02:00</time>
      </trkpt>
      <trkpt lat="43.75627" lon="3.70688">
        <ele>274</ele>
        <time>2021-10-19T15:06:05+02:00</time>
      </trkpt>
      <trkpt lat="43.75639" lon="3.7069">
        <ele>275</ele>
        <time>2021-10-19T15:06:10+02:00</time>
      </trkpt>
      <trkpt lat="43.75653" lon="3.70694">
        <ele>275</ele>
        <time>2021-10-19T15:06:15+02:00</time>
      </trkpt>
      <trkpt lat="43.75666" lon="3.70696">
        <ele>275</ele>
        <time>2021-10-19T15:06:20+02:00</time>
      </trkpt>
      <trkpt lat="43.75676" lon="3.70696">
        <ele>276</ele>
        <time>2021-10-19T15:06:25+02:00</time>
      </trkpt>
      <trkpt lat="43.75687" lon="3.70692">
        <ele>276</ele>
        <time>2021-10-19T15:06:30+02:00</time>
      </trkpt>
      <trkpt lat="43.75703" lon="3.70686">
        <ele>276</ele>
        <time>2021-10-19T15:06:35+02:00</time>
      </trkpt>
      <trkpt lat="43.75718" lon="3.70679">
        <ele>276</ele>
        <time>2021-10-19T15:06:40+02:00</time>
      </trkpt>
      <trkpt lat="43.75731" lon="3.7067">
        <ele>276</ele>
        <time>2021-10-19T15:06:45+02:00</time>
      </trkpt>
      <trkpt lat="43.75748" lon="3.70655">
        <ele>276</ele>
        <time>2021-10-19T15:06:50+02:00</time>
      </trkpt>
      <trkpt lat="43.75764" lon="3.70643">
        <ele>277</ele>
        <time>2021-10-19T15:06:55+02:00</time>
      </trkpt>
      <trkpt lat="43.75781" lon="3.70629">
        <ele>277</ele>
        <time>2021-10-19T15:07:00+02:00</time>
      </trkpt>
      <trkpt lat="43.75789" lon="3.7062">
        <ele>277</ele>
        <time>2021-10-19T15:07:05+02:00</time>
      </trkpt>
      <trkpt lat="43.75804" lon="3.70609">
        <ele>277</ele>
        <time>2021-10-19T15:07:10+02:00</time>
      </trkpt>
      <trkpt lat="43.7582" lon="3.70611">
        <ele>277</ele>
        <time>2021-10-19T15:07:15+02:00</time>
      </trkpt>
      <trkpt lat="43.75835" lon="3.70613">
        <ele>276</ele>
        <time>2021-10-19T15:07:20+02:00</time>
      </trkpt>
      <trkpt lat="43.75853" lon="3.70617">
        <ele>278</ele>
        <time>2021-10-19T15:07:25+02:00</time>
      </trkpt>
      <trkpt lat="43.75869" lon="3.70619">
        <ele>279</ele>
        <time>2021-10-19T15:07:30+02:00</time>
      </trkpt>
      <trkpt lat="43.75884" lon="3.70623">
        <ele>281</ele>
        <time>2021-10-19T15:07:35+02:00</time>
      </trkpt>
      <trkpt lat="43.75894" lon="3.70624">
        <ele>282</ele>
        <time>2021-10-19T15:07:40+02:00</time>
      </trkpt>
      <trkpt lat="43.75906" lon="3.70628">
        <ele>282</ele>
        <time>2021-10-19T15:07:45+02:00</time>
      </trkpt>
      <trkpt lat="43.75921" lon="3.70631">
        <ele>283</ele>
        <time>2021-10-19T15:07:50+02:00</time>
      </trkpt>
      <trkpt lat="43.75939" lon="3.70625">
        <ele>283</ele>
        <time>2021-10-19T15:07:55+02:00</time>
      </trkpt>
      <trkpt lat="43.75964" lon="3.70615">
        <ele>283</ele>
        <time>2021-10-19T15:08:00+02:00</time>
      </trkpt>
      <trkpt lat="43.75977" lon="3.70609">
        <ele>283</ele>
        <time>2021-10-19T15:08:05+02:00</time>
      </trkpt>
      <trkpt lat="43.75997" lon="3.70596">
        <ele>283</ele>
        <time>2021-10-19T15:08:10+02:00</time>
      </trkpt>
      <trkpt lat="43.76014" lon="3.70584">
        <ele>282</ele>
        <time>2021-10-19T15:08:15+02:00</time>
      </trkpt>
      <trkpt lat="43.76026" lon="3.70578">
        <ele>281</ele>
        <time>2021-10-19T15:08:20+02:00</time>
      </trkpt>
      <trkpt lat="43.76054" lon="3.7057">
        <ele>280</ele>
        <time>2021-10-19T15:08:25+02:00</time>
      </trkpt>
      <trkpt lat="43.76079" lon="3.7056">
        <ele>278</ele>
        <time>2021-10-19T15:08:30+02:00</time>
      </trkpt>
      <trkpt lat="43.761" lon="3.70551">
        <ele>277</ele>
        <time>2021-10-19T15:08:35+02:00</time>
      </trkpt>
      <trkpt lat="43.76121" lon="3.70543">
        <ele>277</ele>
        <time>2021-10-19T15:08:40+02:00</time>
      </trkpt>
      <trkpt lat="43.76157" lon="3.7053">
        <ele>277</ele>
        <time>2021-10-19T15:08:45+02:00</time>
      </trkpt>
      <trkpt lat="43.76172" lon="3.70528">
        <ele>276</ele>
        <time>2021-10-19T15:08:50+02:00</time>
      </trkpt>
      <trkpt lat="43.76188" lon="3.7053">
        <ele>276</ele>
        <time>2021-10-19T15:08:55+02:00</time>
      </trkpt>
      <trkpt lat="43.76207" lon="3.70537">
        <ele>275</ele>
        <time>2021-10-19T15:09:00+02:00</time>
      </trkpt>
      <trkpt lat="43.76224" lon="3.70549">
        <ele>275</ele>
        <time>2021-10-19T15:09:05+02:00</time>
      </trkpt>
      <trkpt lat="43.76245" lon="3.70562">
        <ele>274</ele>
        <time>2021-10-19T15:09:10+02:00</time>
      </trkpt>
      <trkpt lat="43.76272" lon="3.70579">
        <ele>274</ele>
        <time>2021-10-19T15:09:15+02:00</time>
      </trkpt>
      <trkpt lat="43.76292" lon="3.70592">
        <ele>274</ele>
        <time>2021-10-19T15:09:20+02:00</time>
      </trkpt>
      <trkpt lat="43.76314" lon="3.70602">
        <ele>275</ele>
        <time>2021-10-19T15:09:25+02:00</time>
      </trkpt>
      <trkpt lat="43.76344" lon="3.70614">
        <ele>276</ele>
        <time>2021-10-19T15:09:30+02:00</time>
      </trkpt>
      <trkpt lat="43.76363" lon="3.70626">
        <ele>278</ele>
        <time>2021-10-19T15:09:35+02:00</time>
      </trkpt>
      <trkpt lat="43.76384" lon="3.70647">
        <ele>280</ele>
        <time>2021-10-19T15:09:40+02:00</time>
      </trkpt>
      <trkpt lat="43.76398" lon="3.70654">
        <ele>282</ele>
        <time>2021-10-19T15:09:45+02:00</time>
      </trkpt>
      <trkpt lat="43.76411" lon="3.7065">
        <ele>283</ele>
        <time>2021-10-19T15:09:50+02:00</time>
      </trkpt>
      <trkpt lat="43.76421" lon="3.70637">
        <ele>284</ele>
        <time>2021-10-19T15:09:55+02:00</time>
      </trkpt>
      <trkpt lat="43.76432" lon="3.70601">
        <ele>283</ele>
        <time>2021-10-19T15:10:00+02:00</time>
      </trkpt>
      <trkpt lat="43.76458" lon="3.70563">
        <ele>286</ele>
        <time>2021-10-19T15:10:05+02:00</time>
      </trkpt>
      <trkpt lat="43.76471" lon="3.70546">
        <ele>288</ele>
        <time>2021-10-19T15:10:10+02:00</time>
      </trkpt>
      <trkpt lat="43.76483" lon="3.70544">
        <ele>289</ele>
        <time>2021-10-19T15:10:15+02:00</time>
      </trkpt>
      <trkpt lat="43.7649" lon="3.7057">
        <ele>288</ele>
        <time>2021-10-19T15:10:20+02:00</time>
      </trkpt>
      <trkpt lat="43.76486" lon="3.70595">
        <ele>287</ele>
        <time>2021-10-19T15:10:25+02:00</time>
      </trkpt>
      <trkpt lat="43.76486" lon="3.70608">
        <ele>287</ele>
        <time>2021-10-19T15:10:30+02:00</time>
      </trkpt>
      <trkpt lat="43.76488" lon="3.7062">
        <ele>287</ele>
        <time>2021-10-19T15:10:35+02:00</time>
      </trkpt>
      <trkpt lat="43.76497" lon="3.70629">
        <ele>287</ele>
        <time>2021-10-19T15:10:40+02:00</time>
      </trkpt>
      <trkpt lat="43.76516" lon="3.70648">
        <ele>287</ele>
        <time>2021-10-19T15:10:45+02:00</time>
      </trkpt>
      <trkpt lat="43.76535" lon="3.70679">
        <ele>286</ele>
        <time>2021-10-19T15:10:50+02:00</time>
      </trkpt>
      <trkpt lat="43.76543" lon="3.70696">
        <ele>285</ele>
        <time>2021-10-19T15:10:55+02:00</time>
      </trkpt>
      <trkpt lat="43.7655" lon="3.70721">
        <ele>284</ele>
        <time>2021-10-19T15:11:00+02:00</time>
      </trkpt>
      <trkpt lat="43.76557" lon="3.70776">
        <ele>282</ele>
        <time>2021-10-19T15:11:05+02:00</time>
      </trkpt>
      <trkpt lat="43.76561" lon="3.70795">
        <ele>282</ele>
        <time>2021-10-19T15:11:10+02:00</time>
      </trkpt>
      <trkpt lat="43.76568" lon="3.70823">
        <ele>281</ele>
        <time>2021-10-19T15:11:15+02:00</time>
      </trkpt>
      <trkpt lat="43.76588" lon="3.70814">
        <ele>278</ele>
        <time>2021-10-19T15:11:20+02:00</time>
      </trkpt>
      <trkpt lat="43.76605" lon="3.70799">
        <ele>277</ele>
        <time>2021-10-19T15:11:25+02:00</time>
      </trkpt>
      <trkpt lat="43.76618" lon="3.70796">
        <ele>276</ele>
        <time>2021-10-19T15:11:30+02:00</time>
      </trkpt>
      <trkpt lat="43.76625" lon="3.70801">
        <ele>275</ele>
        <time>2021-10-19T15:11:35+02:00</time>
      </trkpt>
      <trkpt lat="43.76632" lon="3.70808">
        <ele>274</ele>
        <time>2021-10-19T15:11:40+02:00</time>
      </trkpt>
      <trkpt lat="43.76641" lon="3.70816">
        <ele>273</ele>
        <time>2021-10-19T15:11:45+02:00</time>
      </trkpt>
      <trkpt lat="43.76653" lon="3.70824">
        <ele>272</ele>
        <time>2021-10-19T15:11:50+02:00</time>
      </trkpt>
      <trkpt lat="43.76661" lon="3.70833">
        <ele>271</ele>
        <time>2021-10-19T15:11:55+02:00</time>
      </trkpt>
      <trkpt lat="43.76673" lon="3.70846">
        <ele>270</ele>
        <time>2021-10-19T15:12:00+02:00</time>
      </trkpt>
      <trkpt lat="43.76684" lon="3.70865">
        <ele>270</ele>
        <time>2021-10-19T15:12:05+02:00</time>
      </trkpt>
      <trkpt lat="43.76697" lon="3.70887">
        <ele>270</ele>
        <time>2021-10-19T15:12:10+02:00</time>
      </trkpt>
      <trkpt lat="43.76713" lon="3.70913">
        <ele>270</ele>
        <time>2021-10-19T15:12:15+02:00</time>
      </trkpt>
      <trkpt lat="43.76727" lon="3.70934">
        <ele>269</ele>
        <time>2021-10-19T15:12:20+02:00</time>
      </trkpt>
      <trkpt lat="43.76742" lon="3.70955">
        <ele>269</ele>
        <time>2021-10-19T15:12:25+02:00</time>
      </trkpt>
      <trkpt lat="43.76752" lon="3.70966">
        <ele>269</ele>
        <time>2021-10-19T15:12:30+02:00</time>
      </trkpt>
      <trkpt lat="43.76767" lon="3.70976">
        <ele>268</ele>
        <time>2021-10-19T15:12:35+02:00</time>
      </trkpt>
      <trkpt lat="43.76778" lon="3.70985">
        <ele>267</ele>
        <time>2021-10-19T15:12:40+02:00</time>
      </trkpt>
      <trkpt lat="43.7679" lon="3.70998">
        <ele>266</ele>
        <time>2021-10-19T15:12:45+02:00</time>
      </trkpt>
      <trkpt lat="43.76801" lon="3.71012">
        <ele>265</ele>
        <time>2021-10-19T15:12:50+02:00</time>
      </trkpt>
      <trkpt lat="43.76813" lon="3.71031">
        <ele>264</ele>
        <time>2021-10-19T15:12:55+02:00</time>
      </trkpt>
      <trkpt lat="43.76827" lon="3.71054">
        <ele>262</ele>
        <time>2021-10-19T15:13:00+02:00</time>
      </trkpt>
      <trkpt lat="43.76839" lon="3.71076">
        <ele>261</ele>
        <time>2021-10-19T15:13:05+02:00</time>
      </trkpt>
      <trkpt lat="43.76847" lon="3.7109">
        <ele>260</ele>
        <time>2021-10-19T15:13:10+02:00</time>
      </trkpt>
      <trkpt lat="43.76853" lon="3.71096">
        <ele>260</ele>
        <time>2021-10-19T15:13:15+02:00</time>
      </trkpt>
      <trkpt lat="43.76864" lon="3.71101">
        <ele>259</ele>
        <time>2021-10-19T15:13:20+02:00</time>
      </trkpt>
      <trkpt lat="43.76877" lon="3.71104">
        <ele>258</ele>
        <time>2021-10-19T15:13:25+02:00</time>
      </trkpt>
      <trkpt lat="43.76889" lon="3.71108">
        <ele>257</ele>
        <time>2021-10-19T15:13:30+02:00</time>
      </trkpt>
      <trkpt lat="43.76903" lon="3.71121">
        <ele>256</ele>
        <time>2021-10-19T15:13:35+02:00</time>
      </trkpt>
      <trkpt lat="43.76922" lon="3.71141">
        <ele>255</ele>
        <time>2021-10-19T15:13:40+02:00</time>
      </trkpt>
      <trkpt lat="43.76946" lon="3.71166">
        <ele>255</ele>
        <time>2021-10-19T15:13:45+02:00</time>
      </trkpt>
      <trkpt lat="43.76962" lon="3.71185">
        <ele>255</ele>
        <time>2021-10-19T15:13:50+02:00</time>
      </trkpt>
      <trkpt lat="43.76974" lon="3.71202">
        <ele>254</ele>
        <time>2021-10-19T15:13:55+02:00</time>
      </trkpt>
      <trkpt lat="43.76979" lon="3.71219">
        <ele>253</ele>
        <time>2021-10-19T15:14:00+02:00</time>
      </trkpt>
      <trkpt lat="43.76983" lon="3.7124">
        <ele>252</ele>
        <time>2021-10-19T15:14:05+02:00</time>
      </trkpt>
      <trkpt lat="43.76987" lon="3.71264">
        <ele>251</ele>
        <time>2021-10-19T15:14:10+02:00</time>
      </trkpt>
      <trkpt lat="43.76991" lon="3.71297">
        <ele>248</ele>
        <time>2021-10-19T15:14:15+02:00</time>
      </trkpt>
      <trkpt lat="43.76992" lon="3.71335">
        <ele>246</ele>
        <time>2021-10-19T15:14:20+02:00</time>
      </trkpt>
      <trkpt lat="43.76993" lon="3.71357">
        <ele>244</ele>
        <time>2021-10-19T15:14:25+02:00</time>
      </trkpt>
      <trkpt lat="43.76988" lon="3.7137">
        <ele>244</ele>
        <time>2021-10-19T15:14:30+02:00</time>
      </trkpt>
      <trkpt lat="43.76984" lon="3.71382">
        <ele>244</ele>
        <time>2021-10-19T15:14:35+02:00</time>
      </trkpt>
      <trkpt lat="43.76984" lon="3.71396">
        <ele>243</ele>
        <time>2021-10-19T15:14:40+02:00</time>
      </trkpt>
      <trkpt lat="43.76987" lon="3.71431">
        <ele>241</ele>
        <time>2021-10-19T15:14:45+02:00</time>
      </trkpt>
      <trkpt lat="43.76991" lon="3.71463">
        <ele>240</ele>
        <time>2021-10-19T15:14:50+02:00</time>
      </trkpt>
      <trkpt lat="43.76996" lon="3.71503">
        <ele>239</ele>
        <time>2021-10-19T15:14:55+02:00</time>
      </trkpt>
      <trkpt lat="43.76997" lon="3.71521">
        <ele>239</ele>
        <time>2021-10-19T15:15:00+02:00</time>
      </trkpt>
      <trkpt lat="43.76999" lon="3.71534">
        <ele>239</ele>
        <time>2021-10-19T15:15:05+02:00</time>
      </trkpt>
      <trkpt lat="43.76996" lon="3.71548">
        <ele>240</ele>
        <time>2021-10-19T15:15:10+02:00</time>
      </trkpt>
      <trkpt lat="43.7699" lon="3.7157">
        <ele>241</ele>
        <time>2021-10-19T15:15:15+02:00</time>
      </trkpt>
      <trkpt lat="43.76983" lon="3.71591">
        <ele>243</ele>
        <time>2021-10-19T15:15:20+02:00</time>
      </trkpt>
      <trkpt lat="43.76976" lon="3.71607">
        <ele>243</ele>
        <time>2021-10-19T15:15:25+02:00</time>
      </trkpt>
      <trkpt lat="43.7697" lon="3.71614">
        <ele>244</ele>
        <time>2021-10-19T15:15:30+02:00</time>
      </trkpt>
      <trkpt lat="43.76964" lon="3.71615">
        <ele>245</ele>
        <time>2021-10-19T15:15:35+02:00</time>
      </trkpt>
      <trkpt lat="43.76961" lon="3.71608">
        <ele>246</ele>
        <time>2021-10-19T15:15:40+02:00</time>
      </trkpt>
      <trkpt lat="43.76961" lon="3.716">
        <ele>246</ele>
        <time>2021-10-19T15:15:45+02:00</time>
      </trkpt>
      <trkpt lat="43.76963" lon="3.71591">
        <ele>246</ele>
        <time>2021-10-19T15:15:50+02:00</time>
      </trkpt>
      <trkpt lat="43.76963" lon="3.71581">
        <ele>246</ele>
        <time>2021-10-19T15:15:55+02:00</time>
      </trkpt>
      <trkpt lat="43.76961" lon="3.71575">
        <ele>246</ele>
        <time>2021-10-19T15:16:00+02:00</time>
      </trkpt>
      <trkpt lat="43.76958" lon="3.71572">
        <ele>247</ele>
        <time>2021-10-19T15:16:05+02:00</time>
      </trkpt>
      <trkpt lat="43.76953" lon="3.71572">
        <ele>248</ele>
        <time>2021-10-19T15:16:10+02:00</time>
      </trkpt>
      <trkpt lat="43.76944" lon="3.71581">
        <ele>249</ele>
        <time>2021-10-19T15:16:15+02:00</time>
      </trkpt>
      <trkpt lat="43.7693" lon="3.71593">
        <ele>251</ele>
        <time>2021-10-19T15:16:20+02:00</time>
      </trkpt>
      <trkpt lat="43.76914" lon="3.71606">
        <ele>254</ele>
        <time>2021-10-19T15:16:25+02:00</time>
      </trkpt>
      <trkpt lat="43.76903" lon="3.71618">
        <ele>255</ele>
        <time>2021-10-19T15:16:30+02:00</time>
      </trkpt>
      <trkpt lat="43.76892" lon="3.71634">
        <ele>255</ele>
        <time>2021-10-19T15:16:35+02:00</time>
      </trkpt>
      <trkpt lat="43.76885" lon="3.71654">
        <ele>255</ele>
        <time>2021-10-19T15:16:40+02:00</time>
      </trkpt>
      <trkpt lat="43.7688" lon="3.71674">
        <ele>256</ele>
        <time>2021-10-19T15:16:45+02:00</time>
      </trkpt>
      <trkpt lat="43.7688" lon="3.71693">
        <ele>256</ele>
        <time>2021-10-19T15:16:50+02:00</time>
      </trkpt>
      <trkpt lat="43.76883" lon="3.71713">
        <ele>257</ele>
        <time>2021-10-19T15:16:55+02:00</time>
      </trkpt>
      <trkpt lat="43.7689" lon="3.71739">
        <ele>257</ele>
        <time>2021-10-19T15:17:00+02:00</time>
      </trkpt>
      <trkpt lat="43.76901" lon="3.71777">
        <ele>259</ele>
        <time>2021-10-19T15:17:05+02:00</time>
      </trkpt>
      <trkpt lat="43.76909" lon="3.71801">
        <ele>261</ele>
        <time>2021-10-19T15:17:10+02:00</time>
      </trkpt>
      <trkpt lat="43.76918" lon="3.71834">
        <ele>263</ele>
        <time>2021-10-19T15:17:15+02:00</time>
      </trkpt>
      <trkpt lat="43.76928" lon="3.71878">
        <ele>264</ele>
        <time>2021-10-19T15:17:20+02:00</time>
      </trkpt>
      <trkpt lat="43.76937" lon="3.71914">
        <ele>265</ele>
        <time>2021-10-19T15:17:25+02:00</time>
      </trkpt>
      <trkpt lat="43.76947" lon="3.71957">
        <ele>266</ele>
        <time>2021-10-19T15:17:30+02:00</time>
      </trkpt>
      <trkpt lat="43.7696" lon="3.72013">
        <ele>267</ele>
        <time>2021-10-19T15:17:35+02:00</time>
      </trkpt>
      <trkpt lat="43.76976" lon="3.7207">
        <ele>266</ele>
        <time>2021-10-19T15:17:40+02:00</time>
      </trkpt>
      <trkpt lat="43.76988" lon="3.72118">
        <ele>267</ele>
        <time>2021-10-19T15:17:45+02:00</time>
      </trkpt>
      <trkpt lat="43.77002" lon="3.72166">
        <ele>268</ele>
        <time>2021-10-19T15:17:50+02:00</time>
      </trkpt>
      <trkpt lat="43.77019" lon="3.72212">
        <ele>268</ele>
        <time>2021-10-19T15:17:55+02:00</time>
      </trkpt>
      <trkpt lat="43.77033" lon="3.72251">
        <ele>269</ele>
        <time>2021-10-19T15:18:00+02:00</time>
      </trkpt>
      <trkpt lat="43.7705" lon="3.72298">
        <ele>268</ele>
        <time>2021-10-19T15:18:05+02:00</time>
      </trkpt>
      <trkpt lat="43.77061" lon="3.72341">
        <ele>268</ele>
        <time>2021-10-19T15:18:10+02:00</time>
      </trkpt>
      <trkpt lat="43.77069" lon="3.72369">
        <ele>267</ele>
        <time>2021-10-19T15:18:15+02:00</time>
      </trkpt>
      <trkpt lat="43.7707" lon="3.72375">
        <ele>267</ele>
        <time>2021-10-19T15:18:20+02:00</time>
      </trkpt>
      <trkpt lat="43.77068" lon="3.72385">
        <ele>266</ele>
        <time>2021-10-19T15:18:25+02:00</time>
      </trkpt>
      <trkpt lat="43.77066" lon="3.72395">
        <ele>266</ele>
        <time>2021-10-19T15:18:30+02:00</time>
      </trkpt>
      <trkpt lat="43.77066" lon="3.72406">
        <ele>265</ele>
        <time>2021-10-19T15:18:35+02:00</time>
      </trkpt>
      <trkpt lat="43.77067" lon="3.72421">
        <ele>264</ele>
        <time>2021-10-19T15:18:40+02:00</time>
      </trkpt>
      <trkpt lat="43.77067" lon="3.72433">
        <ele>263</ele>
        <time>2021-10-19T15:18:45+02:00</time>
      </trkpt>
      <trkpt lat="43.77065" lon="3.72443">
        <ele>262</ele>
        <time>2021-10-19T15:18:50+02:00</time>
      </trkpt>
      <trkpt lat="43.77059" lon="3.72451">
        <ele>262</ele>
        <time>2021-10-19T15:18:55+02:00</time>
      </trkpt>
      <trkpt lat="43.77055" lon="3.72457">
        <ele>261</ele>
        <time>2021-10-19T15:19:00+02:00</time>
      </trkpt>
      <trkpt lat="43.77051" lon="3.72463">
        <ele>261</ele>
        <time>2021-10-19T15:19:05+02:00</time>
      </trkpt>
      <trkpt lat="43.77048" lon="3.72467">
        <ele>260</ele>
        <time>2021-10-19T15:19:10+02:00</time>
      </trkpt>
      <trkpt lat="43.77046" lon="3.72473">
        <ele>260</ele>
        <time>2021-10-19T15:19:15+02:00</time>
      </trkpt>
      <trkpt lat="43.77041" lon="3.72481">
        <ele>259</ele>
        <time>2021-10-19T15:19:20+02:00</time>
      </trkpt>
      <trkpt lat="43.77034" lon="3.72485">
        <ele>259</ele>
        <time>2021-10-19T15:19:25+02:00</time>
      </trkpt>
      <trkpt lat="43.77027" lon="3.7249">
        <ele>259</ele>
        <time>2021-10-19T15:19:30+02:00</time>
      </trkpt>
      <trkpt lat="43.77022" lon="3.72494">
        <ele>259</ele>
        <time>2021-10-19T15:19:35+02:00</time>
      </trkpt>
      <trkpt lat="43.77017" lon="3.72499">
        <ele>259</ele>
        <time>2021-10-19T15:19:40+02:00</time>
      </trkpt>
      <trkpt lat="43.77013" lon="3.72508">
        <ele>259</ele>
        <time>2021-10-19T15:19:45+02:00</time>
      </trkpt>
      <trkpt lat="43.77006" lon="3.72518">
        <ele>259</ele>
        <time>2021-10-19T15:19:50+02:00</time>
      </trkpt>
      <trkpt lat="43.76997" lon="3.72525">
        <ele>259</ele>
        <time>2021-10-19T15:19:55+02:00</time>
      </trkpt>
      <trkpt lat="43.76988" lon="3.7253">
        <ele>259</ele>
        <time>2021-10-19T15:20:00+02:00</time>
      </trkpt>
      <trkpt lat="43.76975" lon="3.72534">
        <ele>259</ele>
        <time>2021-10-19T15:20:05+02:00</time>
      </trkpt>
      <trkpt lat="43.76966" lon="3.72538">
        <ele>258</ele>
        <time>2021-10-19T15:20:10+02:00</time>
      </trkpt>
      <trkpt lat="43.76958" lon="3.72542">
        <ele>258</ele>
        <time>2021-10-19T15:20:15+02:00</time>
      </trkpt>
      <trkpt lat="43.76949" lon="3.72542">
        <ele>258</ele>
        <time>2021-10-19T15:20:20+02:00</time>
      </trkpt>
      <trkpt lat="43.76937" lon="3.72538">
        <ele>258</ele>
        <time>2021-10-19T15:20:25+02:00</time>
      </trkpt>
      <trkpt lat="43.76923" lon="3.72534">
        <ele>258</ele>
        <time>2021-10-19T15:20:30+02:00</time>
      </trkpt>
      <trkpt lat="43.76911" lon="3.72532">
        <ele>258</ele>
        <time>2021-10-19T15:20:35+02:00</time>
      </trkpt>
      <trkpt lat="43.76903" lon="3.72532">
        <ele>258</ele>
        <time>2021-10-19T15:20:40+02:00</time>
      </trkpt>
      <trkpt lat="43.76892" lon="3.72528">
        <ele>258</ele>
        <time>2021-10-19T15:20:45+02:00</time>
      </trkpt>
      <trkpt lat="43.76886" lon="3.72535">
        <ele>258</ele>
        <time>2021-10-19T15:20:50+02:00</time>
      </trkpt>
      <trkpt lat="43.76885" lon="3.72538">
        <ele>258</ele>
        <time>2021-10-19T15:20:55+02:00</time>
      </trkpt>
      <trkpt lat="43.76883" lon="3.72541">
        <ele>259</ele>
        <time>2021-10-19T15:21:00+02:00</time>
      </trkpt>
      <trkpt lat="43.7688" lon="3.72541">
        <ele>259</ele>
        <time>2021-10-19T15:21:05+02:00</time>
      </trkpt>
      <trkpt lat="43.76874" lon="3.72539">
        <ele>259</ele>
        <time>2021-10-19T15:21:10+02:00</time>
      </trkpt>
      <trkpt lat="43.76868" lon="3.72537">
        <ele>259</ele>
        <time>2021-10-19T15:21:15+02:00</time>
      </trkpt>
      <trkpt lat="43.76864" lon="3.72536">
        <ele>259</ele>
        <time>2021-10-19T15:21:20+02:00</time>
      </trkpt>
      <trkpt lat="43.76862" lon="3.72533">
        <ele>259</ele>
        <time>2021-10-19T15:21:25+02:00</time>
      </trkpt>
      <trkpt lat="43.76859" lon="3.72528">
        <ele>259</ele>
        <time>2021-10-19T15:21:30+02:00</time>
      </trkpt>
      <trkpt lat="43.76855" lon="3.72524">
        <ele>259</ele>
        <time>2021-10-19T15:21:35+02:00</time>
      </trkpt>
      <trkpt lat="43.76846" lon="3.7252">
        <ele>259</ele>
        <time>2021-10-19T15:21:40+02:00</time>
      </trkpt>
      <trkpt lat="43.76838" lon="3.72517">
        <ele>259</ele>
        <time>2021-10-19T15:21:45+02:00</time>
      </trkpt>
      <trkpt lat="43.76831" lon="3.72514">
        <ele>259</ele>
        <time>2021-10-19T15:21:50+02:00</time>
      </trkpt>
      <trkpt lat="43.76824" lon="3.72512">
        <ele>259</ele>
        <time>2021-10-19T15:21:55+02:00</time>
      </trkpt>
      <trkpt lat="43.76818" lon="3.72512">
        <ele>259</ele>
        <time>2021-10-19T15:22:00+02:00</time>
      </trkpt>
      <trkpt lat="43.7681" lon="3.72514">
        <ele>259</ele>
        <time>2021-10-19T15:22:05+02:00</time>
      </trkpt>
      <trkpt lat="43.76805" lon="3.72518">
        <ele>259</ele>
        <time>2021-10-19T15:22:10+02:00</time>
      </trkpt>
      <trkpt lat="43.76801" lon="3.72523">
        <ele>259</ele>
        <time>2021-10-19T15:22:15+02:00</time>
      </trkpt>
      <trkpt lat="43.768" lon="3.7253">
        <ele>259</ele>
        <time>2021-10-19T15:22:20+02:00</time>
      </trkpt>
      <trkpt lat="43.76802" lon="3.72545">
        <ele>259</ele>
        <time>2021-10-19T15:22:25+02:00</time>
      </trkpt>
      <trkpt lat="43.76806" lon="3.72567">
        <ele>260</ele>
        <time>2021-10-19T15:22:30+02:00</time>
      </trkpt>
      <trkpt lat="43.76809" lon="3.72585">
        <ele>260</ele>
        <time>2021-10-19T15:22:35+02:00</time>
      </trkpt>
      <trkpt lat="43.76811" lon="3.72594">
        <ele>261</ele>
        <time>2021-10-19T15:22:40+02:00</time>
      </trkpt>
      <trkpt lat="43.76816" lon="3.72603">
        <ele>261</ele>
        <time>2021-10-19T15:22:45+02:00</time>
      </trkpt>
      <trkpt lat="43.76823" lon="3.72617">
        <ele>261</ele>
        <time>2021-10-19T15:22:50+02:00</time>
      </trkpt>
      <trkpt lat="43.76827" lon="3.72627">
        <ele>261</ele>
        <time>2021-10-19T15:22:55+02:00</time>
      </trkpt>
      <trkpt lat="43.76833" lon="3.72647">
        <ele>262</ele>
        <time>2021-10-19T15:23:00+02:00</time>
      </trkpt>
      <trkpt lat="43.76839" lon="3.72663">
        <ele>262</ele>
        <time>2021-10-19T15:23:05+02:00</time>
      </trkpt>
      <trkpt lat="43.76846" lon="3.72681">
        <ele>262</ele>
        <time>2021-10-19T15:23:10+02:00</time>
      </trkpt>
      <trkpt lat="43.76854" lon="3.727">
        <ele>262</ele>
        <time>2021-10-19T15:23:15+02:00</time>
      </trkpt>
      <trkpt lat="43.76859" lon="3.72714">
        <ele>261</ele>
        <time>2021-10-19T15:23:20+02:00</time>
      </trkpt>
      <trkpt lat="43.76863" lon="3.72723">
        <ele>261</ele>
        <time>2021-10-19T15:23:25+02:00</time>
      </trkpt>
      <trkpt lat="43.7687" lon="3.72731">
        <ele>261</ele>
        <time>2021-10-19T15:23:30+02:00</time>
      </trkpt>
      <trkpt lat="43.76876" lon="3.7274">
        <ele>262</ele>
        <time>2021-10-19T15:23:35+02:00</time>
      </trkpt>
      <trkpt lat="43.76882" lon="3.72748">
        <ele>262</ele>
        <time>2021-10-19T15:23:40+02:00</time>
      </trkpt>
      <trkpt lat="43.76895" lon="3.72752">
        <ele>262</ele>
        <time>2021-10-19T15:23:45+02:00</time>
      </trkpt>
      <trkpt lat="43.76912" lon="3.72757">
        <ele>263</ele>
        <time>2021-10-19T15:23:50+02:00</time>
      </trkpt>
      <trkpt lat="43.76935" lon="3.72762">
        <ele>263</ele>
        <time>2021-10-19T15:23:55+02:00</time>
      </trkpt>
      <trkpt lat="43.76953" lon="3.72765">
        <ele>263</ele>
        <time>2021-10-19T15:24:00+02:00</time>
      </trkpt>
      <trkpt lat="43.7696" lon="3.72774">
        <ele>264</ele>
        <time>2021-10-19T15:24:05+02:00</time>
      </trkpt>
      <trkpt lat="43.76972" lon="3.72789">
        <ele>264</ele>
        <time>2021-10-19T15:24:10+02:00</time>
      </trkpt>
      <trkpt lat="43.76975" lon="3.72801">
        <ele>264</ele>
        <time>2021-10-19T15:24:15+02:00</time>
      </trkpt>
      <trkpt lat="43.76975" lon="3.7281">
        <ele>264</ele>
        <time>2021-10-19T15:24:20+02:00</time>
      </trkpt>
      <trkpt lat="43.76976" lon="3.7282">
        <ele>265</ele>
        <time>2021-10-19T15:24:25+02:00</time>
      </trkpt>
      <trkpt lat="43.76979" lon="3.72832">
        <ele>265</ele>
        <time>2021-10-19T15:24:30+02:00</time>
      </trkpt>
      <trkpt lat="43.76982" lon="3.72846">
        <ele>265</ele>
        <time>2021-10-19T15:24:35+02:00</time>
      </trkpt>
      <trkpt lat="43.76985" lon="3.72851">
        <ele>266</ele>
        <time>2021-10-19T15:24:40+02:00</time>
      </trkpt>
      <trkpt lat="43.76987" lon="3.7286">
        <ele>266</ele>
        <time>2021-10-19T15:24:45+02:00</time>
      </trkpt>
      <trkpt lat="43.76988" lon="3.72869">
        <ele>266</ele>
        <time>2021-10-19T15:24:50+02:00</time>
      </trkpt>
      <trkpt lat="43.7699" lon="3.72881">
        <ele>267</ele>
        <time>2021-10-19T15:24:55+02:00</time>
      </trkpt>
      <trkpt lat="43.7699" lon="3.72889">
        <ele>267</ele>
        <time>2021-10-19T15:25:00+02:00</time>
      </trkpt>
      <trkpt lat="43.76988" lon="3.72901">
        <ele>267</ele>
        <time>2021-10-19T15:25:05+02:00</time>
      </trkpt>
      <trkpt lat="43.76989" lon="3.72911">
        <ele>268</ele>
        <time>2021-10-19T15:25:10+02:00</time>
      </trkpt>
      <trkpt lat="43.76989" lon="3.72924">
        <ele>269</ele>
        <time>2021-10-19T15:25:15+02:00</time>
      </trkpt>
      <trkpt lat="43.76991" lon="3.72933">
        <ele>269</ele>
        <time>2021-10-19T15:25:20+02:00</time>
      </trkpt>
      <trkpt lat="43.76994" lon="3.72941">
        <ele>270</ele>
        <time>2021-10-19T15:25:25+02:00</time>
      </trkpt>
      <trkpt lat="43.76996" lon="3.7295">
        <ele>271</ele>
        <time>2021-10-19T15:25:30+02:00</time>
      </trkpt>
      <trkpt lat="43.76998" lon="3.72959">
        <ele>272</ele>
        <time>2021-10-19T15:25:35+02:00</time>
      </trkpt>
      <trkpt lat="43.77" lon="3.72968">
        <ele>273</ele>
        <time>2021-10-19T15:25:40+02:00</time>
      </trkpt>
      <trkpt lat="43.77" lon="3.72975">
        <ele>274</ele>
        <time>2021-10-19T15:25:45+02:00</time>
      </trkpt>
      <trkpt lat="43.77" lon="3.72986">
        <ele>275</ele>
        <time>2021-10-19T15:25:50+02:00</time>
      </trkpt>
      <trkpt lat="43.77001" lon="3.73004">
        <ele>276</ele>
        <time>2021-10-19T15:25:55+02:00</time>
      </trkpt>
      <trkpt lat="43.77001" lon="3.73015">
        <ele>277</ele>
        <time>2021-10-19T15:26:00+02:00</time>
      </trkpt>
      <trkpt lat="43.77001" lon="3.73022">
        <ele>277</ele>
        <time>2021-10-19T15:26:05+02:00</time>
      </trkpt>
      <trkpt lat="43.77002" lon="3.73027">
        <ele>277</ele>
        <time>2021-10-19T15:26:10+02:00</time>
      </trkpt>
      <trkpt lat="43.77005" lon="3.73035">
        <ele>277</ele>
        <time>2021-10-19T15:26:15+02:00</time>
      </trkpt>
      <trkpt lat="43.77008" lon="3.73043">
        <ele>277</ele>
        <time>2021-10-19T15:26:20+02:00</time>
      </trkpt>
      <trkpt lat="43.77009" lon="3.73048">
        <ele>278</ele>
        <time>2021-10-19T15:26:25+02:00</time>
      </trkpt>
      <trkpt lat="43.77008" lon="3.73055">
        <ele>278</ele>
        <time>2021-10-19T15:26:30+02:00</time>
      </trkpt>
      <trkpt lat="43.7701" lon="3.73064">
        <ele>278</ele>
        <time>2021-10-19T15:26:35+02:00</time>
      </trkpt>
      <trkpt lat="43.77011" lon="3.73072">
        <ele>279</ele>
        <time>2021-10-19T15:26:40+02:00</time>
      </trkpt>
      <trkpt lat="43.77011" lon="3.73078">
        <ele>279</ele>
        <time>2021-10-19T15:26:45+02:00</time>
      </trkpt>
      <trkpt lat="43.77011" lon="3.73085">
        <ele>280</ele>
        <time>2021-10-19T15:26:50+02:00</time>
      </trkpt>
      <trkpt lat="43.77012" lon="3.73096">
        <ele>280</ele>
        <time>2021-10-19T15:26:55+02:00</time>
      </trkpt>
      <trkpt lat="43.77011" lon="3.73104">
        <ele>281</ele>
        <time>2021-10-19T15:27:00+02:00</time>
      </trkpt>
      <trkpt lat="43.77011" lon="3.73111">
        <ele>281</ele>
        <time>2021-10-19T15:27:05+02:00</time>
      </trkpt>
      <trkpt lat="43.77011" lon="3.73119">
        <ele>282</ele>
        <time>2021-10-19T15:27:10+02:00</time>
      </trkpt>
      <trkpt lat="43.77012" lon="3.73128">
        <ele>282</ele>
        <time>2021-10-19T15:27:15+02:00</time>
      </trkpt>
      <trkpt lat="43.77013" lon="3.73137">
        <ele>283</ele>
        <time>2021-10-19T15:27:20+02:00</time>
      </trkpt>
      <trkpt lat="43.77017" lon="3.73148">
        <ele>283</ele>
        <time>2021-10-19T15:27:25+02:00</time>
      </trkpt>
      <trkpt lat="43.7702" lon="3.73157">
        <ele>283</ele>
        <time>2021-10-19T15:27:30+02:00</time>
      </trkpt>
      <trkpt lat="43.77023" lon="3.73167">
        <ele>284</ele>
        <time>2021-10-19T15:27:35+02:00</time>
      </trkpt>
      <trkpt lat="43.77025" lon="3.73178">
        <ele>285</ele>
        <time>2021-10-19T15:27:40+02:00</time>
      </trkpt>
      <trkpt lat="43.7703" lon="3.73189">
        <ele>285</ele>
        <time>2021-10-19T15:27:45+02:00</time>
      </trkpt>
      <trkpt lat="43.77035" lon="3.73198">
        <ele>285</ele>
        <time>2021-10-19T15:27:50+02:00</time>
      </trkpt>
      <trkpt lat="43.77039" lon="3.73204">
        <ele>285</ele>
        <time>2021-10-19T15:27:55+02:00</time>
      </trkpt>
      <trkpt lat="43.77046" lon="3.73213">
        <ele>285</ele>
        <time>2021-10-19T15:28:00+02:00</time>
      </trkpt>
      <trkpt lat="43.77053" lon="3.73221">
        <ele>285</ele>
        <time>2021-10-19T15:28:05+02:00</time>
      </trkpt>
      <trkpt lat="43.7706" lon="3.73231">
        <ele>286</ele>
        <time>2021-10-19T15:28:10+02:00</time>
      </trkpt>
      <trkpt lat="43.77066" lon="3.73238">
        <ele>286</ele>
        <time>2021-10-19T15:28:15+02:00</time>
      </trkpt>
      <trkpt lat="43.77072" lon="3.73245">
        <ele>286</ele>
        <time>2021-10-19T15:28:20+02:00</time>
      </trkpt>
      <trkpt lat="43.77077" lon="3.73253">
        <ele>286</ele>
        <time>2021-10-19T15:28:25+02:00</time>
      </trkpt>
      <trkpt lat="43.77081" lon="3.73255">
        <ele>286</ele>
        <time>2021-10-19T15:28:30+02:00</time>
      </trkpt>
      <trkpt lat="43.77085" lon="3.7326">
        <ele>286</ele>
        <time>2021-10-19T15:28:35+02:00</time>
      </trkpt>
      <trkpt lat="43.7709" lon="3.7327">
        <ele>286</ele>
        <time>2021-10-19T15:28:40+02:00</time>
      </trkpt>
      <trkpt lat="43.77097" lon="3.73283">
        <ele>286</ele>
        <time>2021-10-19T15:28:45+02:00</time>
      </trkpt>
      <trkpt lat="43.77101" lon="3.73291">
        <ele>286</ele>
        <time>2021-10-19T15:28:50+02:00</time>
      </trkpt>
      <trkpt lat="43.77106" lon="3.73298">
        <ele>285</ele>
        <time>2021-10-19T15:28:55+02:00</time>
      </trkpt>
      <trkpt lat="43.7711" lon="3.73303">
        <ele>285</ele>
        <time>2021-10-19T15:29:00+02:00</time>
      </trkpt>
      <trkpt lat="43.77116" lon="3.73313">
        <ele>285</ele>
        <time>2021-10-19T15:29:05+02:00</time>
      </trkpt>
      <trkpt lat="43.77123" lon="3.73324">
        <ele>284</ele>
        <time>2021-10-19T15:29:10+02:00</time>
      </trkpt>
      <trkpt lat="43.77129" lon="3.73339">
        <ele>284</ele>
        <time>2021-10-19T15:29:15+02:00</time>
      </trkpt>
      <trkpt lat="43.77132" lon="3.73353">
        <ele>284</ele>
        <time>2021-10-19T15:29:20+02:00</time>
      </trkpt>
      <trkpt lat="43.77133" lon="3.73375">
        <ele>285</ele>
        <time>2021-10-19T15:29:25+02:00</time>
      </trkpt>
      <trkpt lat="43.77133" lon="3.73393">
        <ele>285</ele>
        <time>2021-10-19T15:29:30+02:00</time>
      </trkpt>
      <trkpt lat="43.77135" lon="3.73422">
        <ele>286</ele>
        <time>2021-10-19T15:29:35+02:00</time>
      </trkpt>
      <trkpt lat="43.77139" lon="3.73433">
        <ele>286</ele>
        <time>2021-10-19T15:29:40+02:00</time>
      </trkpt>
      <trkpt lat="43.77145" lon="3.73439">
        <ele>286</ele>
        <time>2021-10-19T15:29:45+02:00</time>
      </trkpt>
      <trkpt lat="43.77156" lon="3.73446">
        <ele>284</ele>
        <time>2021-10-19T15:29:50+02:00</time>
      </trkpt>
      <trkpt lat="43.77164" lon="3.73458">
        <ele>283</ele>
        <time>2021-10-19T15:29:55+02:00</time>
      </trkpt>
      <trkpt lat="43.77168" lon="3.73471">
        <ele>284</ele>
        <time>2021-10-19T15:30:00+02:00</time>
      </trkpt>
      <trkpt lat="43.77171" lon="3.73487">
        <ele>285</ele>
        <time>2021-10-19T15:30:05+02:00</time>
      </trkpt>
      <trkpt lat="43.7717" lon="3.73504">
        <ele>286</ele>
        <time>2021-10-19T15:30:10+02:00</time>
      </trkpt>
      <trkpt lat="43.77174" lon="3.73512">
        <ele>286</ele>
        <time>2021-10-19T15:30:15+02:00</time>
      </trkpt>
      <trkpt lat="43.77176" lon="3.73532">
        <ele>288</ele>
        <time>2021-10-19T15:30:20+02:00</time>
      </trkpt>
      <trkpt lat="43.77182" lon="3.73549">
        <ele>288</ele>
        <time>2021-10-19T15:30:25+02:00</time>
      </trkpt>
      <trkpt lat="43.77194" lon="3.73574">
        <ele>286</ele>
        <time>2021-10-19T15:30:30+02:00</time>
      </trkpt>
      <trkpt lat="43.77211" lon="3.73612">
        <ele>286</ele>
        <time>2021-10-19T15:30:35+02:00</time>
      </trkpt>
      <trkpt lat="43.77225" lon="3.73638">
        <ele>285</ele>
        <time>2021-10-19T15:30:40+02:00</time>
      </trkpt>
      <trkpt lat="43.77234" lon="3.7365">
        <ele>285</ele>
        <time>2021-10-19T15:30:45+02:00</time>
      </trkpt>
      <trkpt lat="43.77238" lon="3.73658">
        <ele>284</ele>
        <time>2021-10-19T15:30:50+02:00</time>
      </trkpt>
      <trkpt lat="43.77243" lon="3.73664">
        <ele>284</ele>
        <time>2021-10-19T15:30:55+02:00</time>
      </trkpt>
      <trkpt lat="43.77245" lon="3.73675">
        <ele>285</ele>
        <time>2021-10-19T15:31:00+02:00</time>
      </trkpt>
      <trkpt lat="43.77246" lon="3.73682">
        <ele>285</ele>
        <time>2021-10-19T15:31:05+02:00</time>
      </trkpt>
      <trkpt lat="43.77252" lon="3.7368">
        <ele>283</ele>
        <time>2021-10-19T15:31:10+02:00</time>
      </trkpt>
      <trkpt lat="43.77258" lon="3.73676">
        <ele>282</ele>
        <time>2021-10-19T15:31:15+02:00</time>
      </trkpt>
      <trkpt lat="43.77268" lon="3.73684">
        <ele>281</ele>
        <time>2021-10-19T15:31:20+02:00</time>
      </trkpt>
      <trkpt lat="43.77275" lon="3.73693">
        <ele>281</ele>
        <time>2021-10-19T15:31:25+02:00</time>
      </trkpt>
      <trkpt lat="43.77288" lon="3.73708">
        <ele>281</ele>
        <time>2021-10-19T15:31:30+02:00</time>
      </trkpt>
      <trkpt lat="43.77295" lon="3.7372">
        <ele>281</ele>
        <time>2021-10-19T15:31:35+02:00</time>
      </trkpt>
      <trkpt lat="43.77302" lon="3.73737">
        <ele>281</ele>
        <time>2021-10-19T15:31:40+02:00</time>
      </trkpt>
      <trkpt lat="43.77308" lon="3.73752">
        <ele>281</ele>
        <time>2021-10-19T15:31:45+02:00</time>
      </trkpt>
      <trkpt lat="43.7731" lon="3.73765">
        <ele>281</ele>
        <time>2021-10-19T15:31:50+02:00</time>
      </trkpt>
      <trkpt lat="43.77312" lon="3.73783">
        <ele>282</ele>
        <time>2021-10-19T15:31:55+02:00</time>
      </trkpt>
      <trkpt lat="43.77311" lon="3.73799">
        <ele>283</ele>
        <time>2021-10-19T15:32:00+02:00</time>
      </trkpt>
      <trkpt lat="43.77309" lon="3.73811">
        <ele>284</ele>
        <time>2021-10-19T15:32:05+02:00</time>
      </trkpt>
      <trkpt lat="43.7731" lon="3.73834">
        <ele>285</ele>
        <time>2021-10-19T15:32:10+02:00</time>
      </trkpt>
      <trkpt lat="43.77309" lon="3.73851">
        <ele>287</ele>
        <time>2021-10-19T15:32:15+02:00</time>
      </trkpt>
      <trkpt lat="43.77308" lon="3.73865">
        <ele>289</ele>
        <time>2021-10-19T15:32:20+02:00</time>
      </trkpt>
      <trkpt lat="43.77309" lon="3.7388">
        <ele>290</ele>
        <time>2021-10-19T15:32:25+02:00</time>
      </trkpt>
      <trkpt lat="43.77307" lon="3.73889">
        <ele>291</ele>
        <time>2021-10-19T15:32:30+02:00</time>
      </trkpt>
      <trkpt lat="43.77313" lon="3.73901">
        <ele>291</ele>
        <time>2021-10-19T15:32:35+02:00</time>
      </trkpt>
      <trkpt lat="43.77317" lon="3.73925">
        <ele>293</ele>
        <time>2021-10-19T15:32:40+02:00</time>
      </trkpt>
      <trkpt lat="43.77323" lon="3.73936">
        <ele>293</ele>
        <time>2021-10-19T15:32:45+02:00</time>
      </trkpt>
      <trkpt lat="43.77329" lon="3.73951">
        <ele>293</ele>
        <time>2021-10-19T15:32:50+02:00</time>
      </trkpt>
      <trkpt lat="43.77335" lon="3.73965">
        <ele>294</ele>
        <time>2021-10-19T15:32:55+02:00</time>
      </trkpt>
      <trkpt lat="43.7734" lon="3.73987">
        <ele>296</ele>
        <time>2021-10-19T15:33:00+02:00</time>
      </trkpt>
      <trkpt lat="43.77341" lon="3.74004">
        <ele>297</ele>
        <time>2021-10-19T15:33:05+02:00</time>
      </trkpt>
      <trkpt lat="43.77341" lon="3.74022">
        <ele>298</ele>
        <time>2021-10-19T15:33:10+02:00</time>
      </trkpt>
      <trkpt lat="43.7734" lon="3.74046">
        <ele>298</ele>
        <time>2021-10-19T15:33:15+02:00</time>
      </trkpt>
      <trkpt lat="43.7734" lon="3.74067">
        <ele>299</ele>
        <time>2021-10-19T15:33:20+02:00</time>
      </trkpt>
      <trkpt lat="43.77333" lon="3.74076">
        <ele>300</ele>
        <time>2021-10-19T15:33:25+02:00</time>
      </trkpt>
      <trkpt lat="43.77323" lon="3.74083">
        <ele>301</ele>
        <time>2021-10-19T15:33:30+02:00</time>
      </trkpt>
      <trkpt lat="43.7731" lon="3.7409">
        <ele>301</ele>
        <time>2021-10-19T15:33:35+02:00</time>
      </trkpt>
      <trkpt lat="43.77299" lon="3.74092">
        <ele>302</ele>
        <time>2021-10-19T15:33:40+02:00</time>
      </trkpt>
      <trkpt lat="43.7729" lon="3.74092">
        <ele>303</ele>
        <time>2021-10-19T15:33:45+02:00</time>
      </trkpt>
      <trkpt lat="43.77285" lon="3.74085">
        <ele>304</ele>
        <time>2021-10-19T15:33:50+02:00</time>
      </trkpt>
      <trkpt lat="43.7728" lon="3.74067">
        <ele>305</ele>
        <time>2021-10-19T15:33:55+02:00</time>
      </trkpt>
      <trkpt lat="43.77274" lon="3.74052">
        <ele>305</ele>
        <time>2021-10-19T15:34:00+02:00</time>
      </trkpt>
      <trkpt lat="43.77265" lon="3.74042">
        <ele>306</ele>
        <time>2021-10-19T15:34:05+02:00</time>
      </trkpt>
      <trkpt lat="43.77258" lon="3.74035">
        <ele>307</ele>
        <time>2021-10-19T15:34:10+02:00</time>
      </trkpt>
      <trkpt lat="43.77245" lon="3.74036">
        <ele>309</ele>
        <time>2021-10-19T15:34:15+02:00</time>
      </trkpt>
      <trkpt lat="43.77233" lon="3.7404">
        <ele>310</ele>
        <time>2021-10-19T15:34:20+02:00</time>
      </trkpt>
      <trkpt lat="43.77225" lon="3.74046">
        <ele>311</ele>
        <time>2021-10-19T15:34:25+02:00</time>
      </trkpt>
      <trkpt lat="43.77218" lon="3.74058">
        <ele>312</ele>
        <time>2021-10-19T15:34:30+02:00</time>
      </trkpt>
      <trkpt lat="43.77211" lon="3.74068">
        <ele>312</ele>
        <time>2021-10-19T15:34:35+02:00</time>
      </trkpt>
      <trkpt lat="43.77203" lon="3.74077">
        <ele>313</ele>
        <time>2021-10-19T15:34:40+02:00</time>
      </trkpt>
      <trkpt lat="43.77194" lon="3.74084">
        <ele>314</ele>
        <time>2021-10-19T15:34:45+02:00</time>
      </trkpt>
      <trkpt lat="43.77185" lon="3.74096">
        <ele>313</ele>
        <time>2021-10-19T15:34:50+02:00</time>
      </trkpt>
      <trkpt lat="43.77174" lon="3.74109">
        <ele>313</ele>
        <time>2021-10-19T15:34:55+02:00</time>
      </trkpt>
      <trkpt lat="43.77167" lon="3.74126">
        <ele>312</ele>
        <time>2021-10-19T15:35:00+02:00</time>
      </trkpt>
      <trkpt lat="43.77159" lon="3.7414">
        <ele>310</ele>
        <time>2021-10-19T15:35:05+02:00</time>
      </trkpt>
      <trkpt lat="43.7715" lon="3.74163">
        <ele>308</ele>
        <time>2021-10-19T15:35:10+02:00</time>
      </trkpt>
      <trkpt lat="43.77141" lon="3.74186">
        <ele>306</ele>
        <time>2021-10-19T15:35:15+02:00</time>
      </trkpt>
      <trkpt lat="43.77134" lon="3.74202">
        <ele>304</ele>
        <time>2021-10-19T15:35:20+02:00</time>
      </trkpt>
      <trkpt lat="43.7713" lon="3.74219">
        <ele>303</ele>
        <time>2021-10-19T15:35:25+02:00</time>
      </trkpt>
      <trkpt lat="43.77126" lon="3.7424">
        <ele>301</ele>
        <time>2021-10-19T15:35:30+02:00</time>
      </trkpt>
      <trkpt lat="43.7712" lon="3.74261">
        <ele>299</ele>
        <time>2021-10-19T15:35:35+02:00</time>
      </trkpt>
      <trkpt lat="43.77113" lon="3.74284">
        <ele>297</ele>
        <time>2021-10-19T15:35:40+02:00</time>
      </trkpt>
      <trkpt lat="43.77104" lon="3.74304">
        <ele>296</ele>
        <time>2021-10-19T15:35:45+02:00</time>
      </trkpt>
      <trkpt lat="43.77105" lon="3.74319">
        <ele>295</ele>
        <time>2021-10-19T15:35:50+02:00</time>
      </trkpt>
      <trkpt lat="43.77109" lon="3.74347">
        <ele>291</ele>
        <time>2021-10-19T15:35:55+02:00</time>
      </trkpt>
      <trkpt lat="43.77112" lon="3.74355">
        <ele>289</ele>
        <time>2021-10-19T15:36:00+02:00</time>
      </trkpt>
      <trkpt lat="43.77114" lon="3.74363">
        <ele>288</ele>
        <time>2021-10-19T15:36:05+02:00</time>
      </trkpt>
      <trkpt lat="43.77115" lon="3.74369">
        <ele>287</ele>
        <time>2021-10-19T15:36:10+02:00</time>
      </trkpt>
      <trkpt lat="43.77112" lon="3.74375">
        <ele>287</ele>
        <time>2021-10-19T15:36:15+02:00</time>
      </trkpt>
      <trkpt lat="43.77107" lon="3.74381">
        <ele>287</ele>
        <time>2021-10-19T15:36:20+02:00</time>
      </trkpt>
      <trkpt lat="43.77104" lon="3.74388">
        <ele>286</ele>
        <time>2021-10-19T15:36:25+02:00</time>
      </trkpt>
      <trkpt lat="43.77102" lon="3.74397">
        <ele>285</ele>
        <time>2021-10-19T15:36:30+02:00</time>
      </trkpt>
      <trkpt lat="43.77102" lon="3.74404">
        <ele>284</ele>
        <time>2021-10-19T15:36:35+02:00</time>
      </trkpt>
      <trkpt lat="43.77106" lon="3.7441">
        <ele>283</ele>
        <time>2021-10-19T15:36:40+02:00</time>
      </trkpt>
      <trkpt lat="43.77114" lon="3.74416">
        <ele>282</ele>
        <time>2021-10-19T15:36:45+02:00</time>
      </trkpt>
      <trkpt lat="43.77125" lon="3.74424">
        <ele>280</ele>
        <time>2021-10-19T15:36:50+02:00</time>
      </trkpt>
      <trkpt lat="43.77138" lon="3.74438">
        <ele>278</ele>
        <time>2021-10-19T15:36:55+02:00</time>
      </trkpt>
      <trkpt lat="43.77153" lon="3.74454">
        <ele>277</ele>
        <time>2021-10-19T15:37:00+02:00</time>
      </trkpt>
      <trkpt lat="43.77163" lon="3.74466">
        <ele>275</ele>
        <time>2021-10-19T15:37:05+02:00</time>
      </trkpt>
      <trkpt lat="43.77171" lon="3.74481">
        <ele>274</ele>
        <time>2021-10-19T15:37:10+02:00</time>
      </trkpt>
      <trkpt lat="43.77176" lon="3.74496">
        <ele>273</ele>
        <time>2021-10-19T15:37:15+02:00</time>
      </trkpt>
      <trkpt lat="43.77178" lon="3.74508">
        <ele>273</ele>
        <time>2021-10-19T15:37:20+02:00</time>
      </trkpt>
      <trkpt lat="43.77183" lon="3.7452">
        <ele>272</ele>
        <time>2021-10-19T15:37:25+02:00</time>
      </trkpt>
      <trkpt lat="43.77185" lon="3.74533">
        <ele>272</ele>
        <time>2021-10-19T15:37:30+02:00</time>
      </trkpt>
      <trkpt lat="43.77187" lon="3.74544">
        <ele>272</ele>
        <time>2021-10-19T15:37:35+02:00</time>
      </trkpt>
      <trkpt lat="43.77186" lon="3.74553">
        <ele>272</ele>
        <time>2021-10-19T15:37:40+02:00</time>
      </trkpt>
      <trkpt lat="43.77181" lon="3.74561">
        <ele>273</ele>
        <time>2021-10-19T15:37:45+02:00</time>
      </trkpt>
      <trkpt lat="43.77173" lon="3.74566">
        <ele>274</ele>
        <time>2021-10-19T15:37:50+02:00</time>
      </trkpt>
      <trkpt lat="43.77165" lon="3.74571">
        <ele>274</ele>
        <time>2021-10-19T15:37:55+02:00</time>
      </trkpt>
      <trkpt lat="43.7715" lon="3.74574">
        <ele>274</ele>
        <time>2021-10-19T15:38:00+02:00</time>
      </trkpt>
      <trkpt lat="43.77141" lon="3.74578">
        <ele>273</ele>
        <time>2021-10-19T15:38:05+02:00</time>
      </trkpt>
      <trkpt lat="43.77129" lon="3.74575">
        <ele>273</ele>
        <time>2021-10-19T15:38:10+02:00</time>
      </trkpt>
      <trkpt lat="43.77122" lon="3.74574">
        <ele>273</ele>
        <time>2021-10-19T15:38:15+02:00</time>
      </trkpt>
      <trkpt lat="43.77109" lon="3.74578">
        <ele>273</ele>
        <time>2021-10-19T15:38:20+02:00</time>
      </trkpt>
      <trkpt lat="43.77092" lon="3.74579">
        <ele>272</ele>
        <time>2021-10-19T15:38:25+02:00</time>
      </trkpt>
      <trkpt lat="43.77074" lon="3.74584">
        <ele>272</ele>
        <time>2021-10-19T15:38:30+02:00</time>
      </trkpt>
      <trkpt lat="43.77057" lon="3.74584">
        <ele>272</ele>
        <time>2021-10-19T15:38:35+02:00</time>
      </trkpt>
      <trkpt lat="43.77041" lon="3.74588">
        <ele>271</ele>
        <time>2021-10-19T15:38:40+02:00</time>
      </trkpt>
      <trkpt lat="43.77028" lon="3.74593">
        <ele>271</ele>
        <time>2021-10-19T15:38:45+02:00</time>
      </trkpt>
      <trkpt lat="43.77014" lon="3.74595">
        <ele>271</ele>
        <time>2021-10-19T15:38:50+02:00</time>
      </trkpt>
      <trkpt lat="43.76999" lon="3.74598">
        <ele>271</ele>
        <time>2021-10-19T15:38:55+02:00</time>
      </trkpt>
      <trkpt lat="43.7699" lon="3.74596">
        <ele>271</ele>
        <time>2021-10-19T15:39:00+02:00</time>
      </trkpt>
      <trkpt lat="43.7698" lon="3.74589">
        <ele>270</ele>
        <time>2021-10-19T15:39:05+02:00</time>
      </trkpt>
      <trkpt lat="43.76971" lon="3.74581">
        <ele>270</ele>
        <time>2021-10-19T15:39:10+02:00</time>
      </trkpt>
      <trkpt lat="43.76971" lon="3.74572">
        <ele>270</ele>
        <time>2021-10-19T15:39:15+02:00</time>
      </trkpt>
      <trkpt lat="43.76972" lon="3.74552">
        <ele>271</ele>
        <time>2021-10-19T15:39:20+02:00</time>
      </trkpt>
      <trkpt lat="43.76967" lon="3.74538">
        <ele>271</ele>
        <time>2021-10-19T15:39:25+02:00</time>
      </trkpt>
      <trkpt lat="43.76953" lon="3.74515">
        <ele>271</ele>
        <time>2021-10-19T15:39:30+02:00</time>
      </trkpt>
      <trkpt lat="43.76948" lon="3.74492">
        <ele>271</ele>
        <time>2021-10-19T15:39:35+02:00</time>
      </trkpt>
      <trkpt lat="43.76944" lon="3.74476">
        <ele>272</ele>
        <time>2021-10-19T15:39:40+02:00</time>
      </trkpt>
      <trkpt lat="43.76936" lon="3.74459">
        <ele>273</ele>
        <time>2021-10-19T15:39:45+02:00</time>
      </trkpt>
      <trkpt lat="43.76925" lon="3.74437">
        <ele>273</ele>
        <time>2021-10-19T15:39:50+02:00</time>
      </trkpt>
      <trkpt lat="43.76911" lon="3.74414">
        <ele>274</ele>
        <time>2021-10-19T15:39:55+02:00</time>
      </trkpt>
      <trkpt lat="43.76899" lon="3.74395">
        <ele>274</ele>
        <time>2021-10-19T15:40:00+02:00</time>
      </trkpt>
      <trkpt lat="43.76894" lon="3.74382">
        <ele>274</ele>
        <time>2021-10-19T15:40:05+02:00</time>
      </trkpt>
      <trkpt lat="43.76891" lon="3.74374">
        <ele>274</ele>
        <time>2021-10-19T15:40:10+02:00</time>
      </trkpt>
      <trkpt lat="43.76885" lon="3.74367">
        <ele>274</ele>
        <time>2021-10-19T15:40:15+02:00</time>
      </trkpt>
      <trkpt lat="43.76875" lon="3.74356">
        <ele>274</ele>
        <time>2021-10-19T15:40:20+02:00</time>
      </trkpt>
      <trkpt lat="43.76864" lon="3.74345">
        <ele>274</ele>
        <time>2021-10-19T15:40:25+02:00</time>
      </trkpt>
      <trkpt lat="43.76854" lon="3.74336">
        <ele>274</ele>
        <time>2021-10-19T15:40:30+02:00</time>
      </trkpt>
      <trkpt lat="43.76844" lon="3.74322">
        <ele>274</ele>
        <time>2021-10-19T15:40:35+02:00</time>
      </trkpt>
      <trkpt lat="43.76832" lon="3.74301">
        <ele>274</ele>
        <time>2021-10-19T15:40:40+02:00</time>
      </trkpt>
      <trkpt lat="43.7682" lon="3.7428">
        <ele>275</ele>
        <time>2021-10-19T15:40:45+02:00</time>
      </trkpt>
      <trkpt lat="43.76815" lon="3.74266">
        <ele>275</ele>
        <time>2021-10-19T15:40:50+02:00</time>
      </trkpt>
      <trkpt lat="43.76811" lon="3.74253">
        <ele>275</ele>
        <time>2021-10-19T15:40:55+02:00</time>
      </trkpt>
      <trkpt lat="43.76808" lon="3.74245">
        <ele>275</ele>
        <time>2021-10-19T15:41:00+02:00</time>
      </trkpt>
      <trkpt lat="43.76801" lon="3.74239">
        <ele>275</ele>
        <time>2021-10-19T15:41:05+02:00</time>
      </trkpt>
      <trkpt lat="43.76789" lon="3.74228">
        <ele>275</ele>
        <time>2021-10-19T15:41:10+02:00</time>
      </trkpt>
      <trkpt lat="43.76778" lon="3.74217">
        <ele>275</ele>
        <time>2021-10-19T15:41:15+02:00</time>
      </trkpt>
      <trkpt lat="43.76766" lon="3.7421">
        <ele>274</ele>
        <time>2021-10-19T15:41:20+02:00</time>
      </trkpt>
      <trkpt lat="43.76753" lon="3.74202">
        <ele>273</ele>
        <time>2021-10-19T15:41:25+02:00</time>
      </trkpt>
      <trkpt lat="43.76742" lon="3.74194">
        <ele>272</ele>
        <time>2021-10-19T15:41:30+02:00</time>
      </trkpt>
      <trkpt lat="43.76732" lon="3.74185">
        <ele>271</ele>
        <time>2021-10-19T15:41:35+02:00</time>
      </trkpt>
      <trkpt lat="43.76723" lon="3.74174">
        <ele>269</ele>
        <time>2021-10-19T15:41:40+02:00</time>
      </trkpt>
      <trkpt lat="43.76716" lon="3.74161">
        <ele>268</ele>
        <time>2021-10-19T15:41:45+02:00</time>
      </trkpt>
      <trkpt lat="43.76709" lon="3.74148">
        <ele>268</ele>
        <time>2021-10-19T15:41:50+02:00</time>
      </trkpt>
      <trkpt lat="43.76705" lon="3.74134">
        <ele>267</ele>
        <time>2021-10-19T15:41:55+02:00</time>
      </trkpt>
      <trkpt lat="43.76701" lon="3.7412">
        <ele>267</ele>
        <time>2021-10-19T15:42:00+02:00</time>
      </trkpt>
      <trkpt lat="43.76692" lon="3.74102">
        <ele>266</ele>
        <time>2021-10-19T15:42:05+02:00</time>
      </trkpt>
      <trkpt lat="43.76687" lon="3.74087">
        <ele>265</ele>
        <time>2021-10-19T15:42:10+02:00</time>
      </trkpt>
      <trkpt lat="43.76683" lon="3.74064">
        <ele>265</ele>
        <time>2021-10-19T15:42:15+02:00</time>
      </trkpt>
      <trkpt lat="43.76677" lon="3.7405">
        <ele>260</ele>
        <time>2021-10-19T15:42:20+02:00</time>
      </trkpt>
      <trkpt lat="43.76664" lon="3.74062">
        <ele>259</ele>
        <time>2021-10-19T15:42:25+02:00</time>
      </trkpt>
      <trkpt lat="43.76653" lon="3.74079">
        <ele>258</ele>
        <time>2021-10-19T15:42:30+02:00</time>
      </trkpt>
      <trkpt lat="43.76643" lon="3.74095">
        <ele>257</ele>
        <time>2021-10-19T15:42:35+02:00</time>
      </trkpt>
      <trkpt lat="43.76627" lon="3.74112">
        <ele>256</ele>
        <time>2021-10-19T15:42:40+02:00</time>
      </trkpt>
      <trkpt lat="43.76614" lon="3.74122">
        <ele>255</ele>
        <time>2021-10-19T15:42:45+02:00</time>
      </trkpt>
      <trkpt lat="43.76593" lon="3.7413">
        <ele>254</ele>
        <time>2021-10-19T15:42:50+02:00</time>
      </trkpt>
      <trkpt lat="43.76601" lon="3.74124">
        <ele>255</ele>
        <time>2021-10-19T15:42:55+02:00</time>
      </trkpt>
      <trkpt lat="43.7662" lon="3.74115">
        <ele>256</ele>
        <time>2021-10-19T15:43:00+02:00</time>
      </trkpt>
      <trkpt lat="43.76636" lon="3.74099">
        <ele>257</ele>
        <time>2021-10-19T15:43:05+02:00</time>
      </trkpt>
      <trkpt lat="43.76655" lon="3.74072">
        <ele>259</ele>
        <time>2021-10-19T15:43:10+02:00</time>
      </trkpt>
      <trkpt lat="43.76666" lon="3.74056">
        <ele>259</ele>
        <time>2021-10-19T15:43:15+02:00</time>
      </trkpt>
      <trkpt lat="43.76675" lon="3.74047">
        <ele>260</ele>
        <time>2021-10-19T15:43:20+02:00</time>
      </trkpt>
      <trkpt lat="43.76673" lon="3.74023">
        <ele>264</ele>
        <time>2021-10-19T15:43:25+02:00</time>
      </trkpt>
      <trkpt lat="43.76671" lon="3.74008">
        <ele>264</ele>
        <time>2021-10-19T15:43:30+02:00</time>
      </trkpt>
      <trkpt lat="43.7667" lon="3.73994">
        <ele>263</ele>
        <time>2021-10-19T15:43:35+02:00</time>
      </trkpt>
      <trkpt lat="43.76667" lon="3.73983">
        <ele>263</ele>
        <time>2021-10-19T15:43:40+02:00</time>
      </trkpt>
      <trkpt lat="43.76662" lon="3.73975">
        <ele>263</ele>
        <time>2021-10-19T15:43:45+02:00</time>
      </trkpt>
      <trkpt lat="43.76655" lon="3.73958">
        <ele>262</ele>
        <time>2021-10-19T15:43:50+02:00</time>
      </trkpt>
      <trkpt lat="43.76648" lon="3.73938">
        <ele>262</ele>
        <time>2021-10-19T15:43:55+02:00</time>
      </trkpt>
      <trkpt lat="43.76638" lon="3.73912">
        <ele>262</ele>
        <time>2021-10-19T15:44:00+02:00</time>
      </trkpt>
      <trkpt lat="43.7663" lon="3.73889">
        <ele>262</ele>
        <time>2021-10-19T15:44:05+02:00</time>
      </trkpt>
      <trkpt lat="43.76628" lon="3.73867">
        <ele>262</ele>
        <time>2021-10-19T15:44:10+02:00</time>
      </trkpt>
      <trkpt lat="43.76626" lon="3.73845">
        <ele>262</ele>
        <time>2021-10-19T15:44:15+02:00</time>
      </trkpt>
      <trkpt lat="43.76623" lon="3.73827">
        <ele>262</ele>
        <time>2021-10-19T15:44:20+02:00</time>
      </trkpt>
      <trkpt lat="43.76621" lon="3.73814">
        <ele>262</ele>
        <time>2021-10-19T15:44:25+02:00</time>
      </trkpt>
      <trkpt lat="43.7662" lon="3.73802">
        <ele>262</ele>
        <time>2021-10-19T15:44:30+02:00</time>
      </trkpt>
      <trkpt lat="43.76622" lon="3.73787">
        <ele>262</ele>
        <time>2021-10-19T15:44:35+02:00</time>
      </trkpt>
      <trkpt lat="43.76623" lon="3.73772">
        <ele>262</ele>
        <time>2021-10-19T15:44:40+02:00</time>
      </trkpt>
      <trkpt lat="43.76623" lon="3.73763">
        <ele>262</ele>
        <time>2021-10-19T15:44:45+02:00</time>
      </trkpt>
      <trkpt lat="43.76622" lon="3.73755">
        <ele>262</ele>
        <time>2021-10-19T15:44:50+02:00</time>
      </trkpt>
      <trkpt lat="43.76618" lon="3.73745">
        <ele>262</ele>
        <time>2021-10-19T15:44:55+02:00</time>
      </trkpt>
      <trkpt lat="43.76613" lon="3.73734">
        <ele>262</ele>
        <time>2021-10-19T15:45:00+02:00</time>
      </trkpt>
      <trkpt lat="43.76608" lon="3.73725">
        <ele>261</ele>
        <time>2021-10-19T15:45:05+02:00</time>
      </trkpt>
      <trkpt lat="43.76603" lon="3.73717">
        <ele>261</ele>
        <time>2021-10-19T15:45:10+02:00</time>
      </trkpt>
      <trkpt lat="43.76596" lon="3.73702">
        <ele>261</ele>
        <time>2021-10-19T15:45:15+02:00</time>
      </trkpt>
      <trkpt lat="43.76594" lon="3.73676">
        <ele>260</ele>
        <time>2021-10-19T15:45:20+02:00</time>
      </trkpt>
      <trkpt lat="43.76593" lon="3.73656">
        <ele>260</ele>
        <time>2021-10-19T15:45:25+02:00</time>
      </trkpt>
      <trkpt lat="43.76586" lon="3.7364">
        <ele>260</ele>
        <time>2021-10-19T15:45:30+02:00</time>
      </trkpt>
      <trkpt lat="43.76577" lon="3.7362">
        <ele>259</ele>
        <time>2021-10-19T15:45:35+02:00</time>
      </trkpt>
      <trkpt lat="43.7657" lon="3.73604">
        <ele>259</ele>
        <time>2021-10-19T15:45:40+02:00</time>
      </trkpt>
      <trkpt lat="43.76556" lon="3.73584">
        <ele>259</ele>
        <time>2021-10-19T15:45:45+02:00</time>
      </trkpt>
      <trkpt lat="43.76541" lon="3.73566">
        <ele>259</ele>
        <time>2021-10-19T15:45:50+02:00</time>
      </trkpt>
      <trkpt lat="43.76524" lon="3.73554">
        <ele>259</ele>
        <time>2021-10-19T15:45:55+02:00</time>
      </trkpt>
      <trkpt lat="43.76505" lon="3.73541">
        <ele>258</ele>
        <time>2021-10-19T15:46:00+02:00</time>
      </trkpt>
      <trkpt lat="43.76491" lon="3.7353">
        <ele>255</ele>
        <time>2021-10-19T15:46:05+02:00</time>
      </trkpt>
      <trkpt lat="43.76487" lon="3.7353">
        <ele>255</ele>
        <time>2021-10-19T15:46:10+02:00</time>
      </trkpt>
      <trkpt lat="43.76485" lon="3.73525">
        <ele>255</ele>
        <time>2021-10-19T15:46:15+02:00</time>
      </trkpt>
      <trkpt lat="43.7647" lon="3.73509">
        <ele>258</ele>
        <time>2021-10-19T15:46:20+02:00</time>
      </trkpt>
      <trkpt lat="43.76455" lon="3.73496">
        <ele>257</ele>
        <time>2021-10-19T15:46:25+02:00</time>
      </trkpt>
      <trkpt lat="43.76438" lon="3.73469">
        <ele>257</ele>
        <time>2021-10-19T15:46:30+02:00</time>
      </trkpt>
      <trkpt lat="43.7642" lon="3.73443">
        <ele>256</ele>
        <time>2021-10-19T15:46:35+02:00</time>
      </trkpt>
      <trkpt lat="43.76407" lon="3.73425">
        <ele>255</ele>
        <time>2021-10-19T15:46:40+02:00</time>
      </trkpt>
      <trkpt lat="43.7639" lon="3.73405">
        <ele>255</ele>
        <time>2021-10-19T15:46:45+02:00</time>
      </trkpt>
      <trkpt lat="43.7638" lon="3.73394">
        <ele>254</ele>
        <time>2021-10-19T15:46:50+02:00</time>
      </trkpt>
      <trkpt lat="43.76374" lon="3.73379">
        <ele>254</ele>
        <time>2021-10-19T15:46:55+02:00</time>
      </trkpt>
      <trkpt lat="43.76367" lon="3.73349">
        <ele>254</ele>
        <time>2021-10-19T15:47:00+02:00</time>
      </trkpt>
      <trkpt lat="43.76365" lon="3.73332">
        <ele>253</ele>
        <time>2021-10-19T15:47:05+02:00</time>
      </trkpt>
      <trkpt lat="43.76364" lon="3.7332">
        <ele>253</ele>
        <time>2021-10-19T15:47:10+02:00</time>
      </trkpt>
      <trkpt lat="43.76363" lon="3.73311">
        <ele>253</ele>
        <time>2021-10-19T15:47:15+02:00</time>
      </trkpt>
      <trkpt lat="43.7636" lon="3.73299">
        <ele>253</ele>
        <time>2021-10-19T15:47:20+02:00</time>
      </trkpt>
      <trkpt lat="43.76352" lon="3.73279">
        <ele>253</ele>
        <time>2021-10-19T15:47:25+02:00</time>
      </trkpt>
      <trkpt lat="43.76339" lon="3.73259">
        <ele>253</ele>
        <time>2021-10-19T15:47:30+02:00</time>
      </trkpt>
      <trkpt lat="43.76329" lon="3.73248">
        <ele>253</ele>
        <time>2021-10-19T15:47:35+02:00</time>
      </trkpt>
      <trkpt lat="43.76317" lon="3.73238">
        <ele>253</ele>
        <time>2021-10-19T15:47:40+02:00</time>
      </trkpt>
      <trkpt lat="43.76304" lon="3.73232">
        <ele>253</ele>
        <time>2021-10-19T15:47:45+02:00</time>
      </trkpt>
      <trkpt lat="43.76289" lon="3.73223">
        <ele>253</ele>
        <time>2021-10-19T15:47:50+02:00</time>
      </trkpt>
      <trkpt lat="43.76258" lon="3.73197">
        <ele>253</ele>
        <time>2021-10-19T15:47:55+02:00</time>
      </trkpt>
      <trkpt lat="43.76281" lon="3.73164">
        <ele>249</ele>
        <time>2021-10-19T15:48:00+02:00</time>
      </trkpt>
      <trkpt lat="43.76257" lon="3.73195">
        <ele>246</ele>
        <time>2021-10-19T15:48:05+02:00</time>
      </trkpt>
      <trkpt lat="43.76232" lon="3.73163">
        <ele>254</ele>
        <time>2021-10-19T15:48:10+02:00</time>
      </trkpt>
      <trkpt lat="43.76223" lon="3.73155">
        <ele>254</ele>
        <time>2021-10-19T15:48:15+02:00</time>
      </trkpt>
      <trkpt lat="43.76195" lon="3.73112">
        <ele>255</ele>
        <time>2021-10-19T15:48:20+02:00</time>
      </trkpt>
      <trkpt lat="43.76176" lon="3.73076">
        <ele>256</ele>
        <time>2021-10-19T15:48:25+02:00</time>
      </trkpt>
      <trkpt lat="43.76165" lon="3.73056">
        <ele>256</ele>
        <time>2021-10-19T15:48:30+02:00</time>
      </trkpt>
      <trkpt lat="43.76147" lon="3.73034">
        <ele>257</ele>
        <time>2021-10-19T15:48:35+02:00</time>
      </trkpt>
      <trkpt lat="43.76137" lon="3.73027">
        <ele>257</ele>
        <time>2021-10-19T15:48:40+02:00</time>
      </trkpt>
      <trkpt lat="43.76126" lon="3.73024">
        <ele>257</ele>
        <time>2021-10-19T15:48:45+02:00</time>
      </trkpt>
      <trkpt lat="43.76115" lon="3.73027">
        <ele>257</ele>
        <time>2021-10-19T15:48:50+02:00</time>
      </trkpt>
      <trkpt lat="43.76109" lon="3.73033">
        <ele>258</ele>
        <time>2021-10-19T15:48:55+02:00</time>
      </trkpt>
      <trkpt lat="43.76104" lon="3.73042">
        <ele>258</ele>
        <time>2021-10-19T15:49:00+02:00</time>
      </trkpt>
      <trkpt lat="43.76091" lon="3.73064">
        <ele>258</ele>
        <time>2021-10-19T15:49:05+02:00</time>
      </trkpt>
      <trkpt lat="43.76079" lon="3.73076">
        <ele>258</ele>
        <time>2021-10-19T15:49:10+02:00</time>
      </trkpt>
      <trkpt lat="43.76064" lon="3.73087">
        <ele>258</ele>
        <time>2021-10-19T15:49:15+02:00</time>
      </trkpt>
      <trkpt lat="43.7605" lon="3.73093">
        <ele>258</ele>
        <time>2021-10-19T15:49:20+02:00</time>
      </trkpt>
      <trkpt lat="43.76041" lon="3.73095">
        <ele>258</ele>
        <time>2021-10-19T15:49:25+02:00</time>
      </trkpt>
      <trkpt lat="43.76025" lon="3.73095">
        <ele>258</ele>
        <time>2021-10-19T15:49:30+02:00</time>
      </trkpt>
      <trkpt lat="43.76019" lon="3.73098">
        <ele>258</ele>
        <time>2021-10-19T15:49:35+02:00</time>
      </trkpt>
      <trkpt lat="43.76004" lon="3.73109">
        <ele>258</ele>
        <time>2021-10-19T15:49:40+02:00</time>
      </trkpt>
      <trkpt lat="43.75988" lon="3.73124">
        <ele>258</ele>
        <time>2021-10-19T15:49:45+02:00</time>
      </trkpt>
      <trkpt lat="43.75967" lon="3.73145">
        <ele>258</ele>
        <time>2021-10-19T15:49:50+02:00</time>
      </trkpt>
      <trkpt lat="43.75953" lon="3.73162">
        <ele>258</ele>
        <time>2021-10-19T15:49:55+02:00</time>
      </trkpt>
      <trkpt lat="43.75943" lon="3.73172">
        <ele>258</ele>
        <time>2021-10-19T15:50:00+02:00</time>
      </trkpt>
      <trkpt lat="43.75932" lon="3.73183">
        <ele>258</ele>
        <time>2021-10-19T15:50:05+02:00</time>
      </trkpt>
      <trkpt lat="43.75925" lon="3.73186">
        <ele>258</ele>
        <time>2021-10-19T15:50:10+02:00</time>
      </trkpt>
      <trkpt lat="43.75911" lon="3.73192">
        <ele>259</ele>
        <time>2021-10-19T15:50:15+02:00</time>
      </trkpt>
      <trkpt lat="43.759" lon="3.73191">
        <ele>259</ele>
        <time>2021-10-19T15:50:20+02:00</time>
      </trkpt>
      <trkpt lat="43.75887" lon="3.73192">
        <ele>259</ele>
        <time>2021-10-19T15:50:25+02:00</time>
      </trkpt>
      <trkpt lat="43.75875" lon="3.732">
        <ele>259</ele>
        <time>2021-10-19T15:50:30+02:00</time>
      </trkpt>
      <trkpt lat="43.75856" lon="3.73203">
        <ele>259</ele>
        <time>2021-10-19T15:50:35+02:00</time>
      </trkpt>
      <trkpt lat="43.75844" lon="3.73209">
        <ele>259</ele>
        <time>2021-10-19T15:50:40+02:00</time>
      </trkpt>
      <trkpt lat="43.7583" lon="3.73215">
        <ele>259</ele>
        <time>2021-10-19T15:50:45+02:00</time>
      </trkpt>
      <trkpt lat="43.7582" lon="3.73223">
        <ele>259</ele>
        <time>2021-10-19T15:50:50+02:00</time>
      </trkpt>
      <trkpt lat="43.75808" lon="3.73234">
        <ele>259</ele>
        <time>2021-10-19T15:50:55+02:00</time>
      </trkpt>
      <trkpt lat="43.758" lon="3.73242">
        <ele>259</ele>
        <time>2021-10-19T15:51:00+02:00</time>
      </trkpt>
      <trkpt lat="43.75794" lon="3.73252">
        <ele>259</ele>
        <time>2021-10-19T15:51:05+02:00</time>
      </trkpt>
      <trkpt lat="43.75793" lon="3.73265">
        <ele>259</ele>
        <time>2021-10-19T15:51:10+02:00</time>
      </trkpt>
      <trkpt lat="43.75789" lon="3.73294">
        <ele>259</ele>
        <time>2021-10-19T15:51:15+02:00</time>
      </trkpt>
      <trkpt lat="43.75784" lon="3.73309">
        <ele>259</ele>
        <time>2021-10-19T15:51:20+02:00</time>
      </trkpt>
      <trkpt lat="43.75775" lon="3.7333">
        <ele>259</ele>
        <time>2021-10-19T15:51:25+02:00</time>
      </trkpt>
      <trkpt lat="43.75765" lon="3.73344">
        <ele>259</ele>
        <time>2021-10-19T15:51:30+02:00</time>
      </trkpt>
      <trkpt lat="43.75754" lon="3.73347">
        <ele>259</ele>
        <time>2021-10-19T15:51:35+02:00</time>
      </trkpt>
      <trkpt lat="43.75742" lon="3.73347">
        <ele>259</ele>
        <time>2021-10-19T15:51:40+02:00</time>
      </trkpt>
      <trkpt lat="43.7573" lon="3.73345">
        <ele>260</ele>
        <time>2021-10-19T15:51:45+02:00</time>
      </trkpt>
      <trkpt lat="43.75721" lon="3.73338">
        <ele>260</ele>
        <time>2021-10-19T15:51:50+02:00</time>
      </trkpt>
      <trkpt lat="43.75707" lon="3.73321">
        <ele>261</ele>
        <time>2021-10-19T15:51:55+02:00</time>
      </trkpt>
      <trkpt lat="43.75692" lon="3.73305">
        <ele>262</ele>
        <time>2021-10-19T15:52:00+02:00</time>
      </trkpt>
      <trkpt lat="43.75679" lon="3.73288">
        <ele>263</ele>
        <time>2021-10-19T15:52:05+02:00</time>
      </trkpt>
      <trkpt lat="43.75669" lon="3.73276">
        <ele>264</ele>
        <time>2021-10-19T15:52:10+02:00</time>
      </trkpt>
      <trkpt lat="43.75663" lon="3.73266">
        <ele>264</ele>
        <time>2021-10-19T15:52:15+02:00</time>
      </trkpt>
      <trkpt lat="43.75662" lon="3.73257">
        <ele>264</ele>
        <time>2021-10-19T15:52:20+02:00</time>
      </trkpt>
      <trkpt lat="43.75657" lon="3.73247">
        <ele>264</ele>
        <time>2021-10-19T15:52:25+02:00</time>
      </trkpt>
      <trkpt lat="43.75649" lon="3.73245">
        <ele>265</ele>
        <time>2021-10-19T15:52:30+02:00</time>
      </trkpt>
      <trkpt lat="43.75645" lon="3.7324">
        <ele>265</ele>
        <time>2021-10-19T15:52:35+02:00</time>
      </trkpt>
      <trkpt lat="43.75643" lon="3.73233">
        <ele>265</ele>
        <time>2021-10-19T15:52:40+02:00</time>
      </trkpt>
      <trkpt lat="43.75638" lon="3.7323">
        <ele>266</ele>
        <time>2021-10-19T15:52:45+02:00</time>
      </trkpt>
      <trkpt lat="43.7563" lon="3.73231">
        <ele>266</ele>
        <time>2021-10-19T15:52:50+02:00</time>
      </trkpt>
      <trkpt lat="43.75618" lon="3.73231">
        <ele>266</ele>
        <time>2021-10-19T15:52:55+02:00</time>
      </trkpt>
      <trkpt lat="43.75605" lon="3.73232">
        <ele>267</ele>
        <time>2021-10-19T15:53:00+02:00</time>
      </trkpt>
      <trkpt lat="43.75601" lon="3.73232">
        <ele>267</ele>
        <time>2021-10-19T15:53:05+02:00</time>
      </trkpt>
      <trkpt lat="43.75591" lon="3.73222">
        <ele>267</ele>
        <time>2021-10-19T15:53:10+02:00</time>
      </trkpt>
      <trkpt lat="43.7558" lon="3.73227">
        <ele>267</ele>
        <time>2021-10-19T15:53:15+02:00</time>
      </trkpt>
      <trkpt lat="43.75573" lon="3.73224">
        <ele>267</ele>
        <time>2021-10-19T15:53:20+02:00</time>
      </trkpt>
      <trkpt lat="43.75566" lon="3.73221">
        <ele>267</ele>
        <time>2021-10-19T15:53:25+02:00</time>
      </trkpt>
      <trkpt lat="43.75563" lon="3.73218">
        <ele>267</ele>
        <time>2021-10-19T15:53:30+02:00</time>
      </trkpt>
      <trkpt lat="43.75564" lon="3.7321">
        <ele>267</ele>
        <time>2021-10-19T15:53:35+02:00</time>
      </trkpt>
      <trkpt lat="43.75569" lon="3.732">
        <ele>268</ele>
        <time>2021-10-19T15:53:40+02:00</time>
      </trkpt>
      <trkpt lat="43.75574" lon="3.73188">
        <ele>268</ele>
        <time>2021-10-19T15:53:45+02:00</time>
      </trkpt>
      <trkpt lat="43.75576" lon="3.73175">
        <ele>269</ele>
        <time>2021-10-19T15:53:50+02:00</time>
      </trkpt>
      <trkpt lat="43.75577" lon="3.73158">
        <ele>269</ele>
        <time>2021-10-19T15:53:55+02:00</time>
      </trkpt>
      <trkpt lat="43.75578" lon="3.73135">
        <ele>269</ele>
        <time>2021-10-19T15:54:00+02:00</time>
      </trkpt>
      <trkpt lat="43.75581" lon="3.73112">
        <ele>268</ele>
        <time>2021-10-19T15:54:05+02:00</time>
      </trkpt>
      <trkpt lat="43.75586" lon="3.731">
        <ele>268</ele>
        <time>2021-10-19T15:54:10+02:00</time>
      </trkpt>
      <trkpt lat="43.75585" lon="3.73089">
        <ele>268</ele>
        <time>2021-10-19T15:54:15+02:00</time>
      </trkpt>
      <trkpt lat="43.75587" lon="3.73062">
        <ele>267</ele>
        <time>2021-10-19T15:54:20+02:00</time>
      </trkpt>
      <trkpt lat="43.7559" lon="3.73034">
        <ele>267</ele>
        <time>2021-10-19T15:54:25+02:00</time>
      </trkpt>
      <trkpt lat="43.75592" lon="3.73001">
        <ele>266</ele>
        <time>2021-10-19T15:54:30+02:00</time>
      </trkpt>
      <trkpt lat="43.75594" lon="3.7297">
        <ele>265</ele>
        <time>2021-10-19T15:54:35+02:00</time>
      </trkpt>
      <trkpt lat="43.75598" lon="3.72942">
        <ele>264</ele>
        <time>2021-10-19T15:54:40+02:00</time>
      </trkpt>
      <trkpt lat="43.75599" lon="3.72929">
        <ele>263</ele>
        <time>2021-10-19T15:54:45+02:00</time>
      </trkpt>
      <trkpt lat="43.75597" lon="3.72917">
        <ele>263</ele>
        <time>2021-10-19T15:54:50+02:00</time>
      </trkpt>
      <trkpt lat="43.75593" lon="3.72902">
        <ele>262</ele>
        <time>2021-10-19T15:54:55+02:00</time>
      </trkpt>
      <trkpt lat="43.75588" lon="3.7288">
        <ele>261</ele>
        <time>2021-10-19T15:55:00+02:00</time>
      </trkpt>
      <trkpt lat="43.75582" lon="3.72854">
        <ele>260</ele>
        <time>2021-10-19T15:55:05+02:00</time>
      </trkpt>
      <trkpt lat="43.75575" lon="3.7283">
        <ele>259</ele>
        <time>2021-10-19T15:55:10+02:00</time>
      </trkpt>
      <trkpt lat="43.75568" lon="3.7281">
        <ele>258</ele>
        <time>2021-10-19T15:55:15+02:00</time>
      </trkpt>
      <trkpt lat="43.75566" lon="3.728">
        <ele>258</ele>
        <time>2021-10-19T15:55:20+02:00</time>
      </trkpt>
      <trkpt lat="43.75563" lon="3.72792">
        <ele>257</ele>
        <time>2021-10-19T15:55:25+02:00</time>
      </trkpt>
      <trkpt lat="43.75561" lon="3.7277">
        <ele>257</ele>
        <time>2021-10-19T15:55:30+02:00</time>
      </trkpt>
      <trkpt lat="43.75559" lon="3.72747">
        <ele>256</ele>
        <time>2021-10-19T15:55:35+02:00</time>
      </trkpt>
      <trkpt lat="43.75557" lon="3.72727">
        <ele>256</ele>
        <time>2021-10-19T15:55:40+02:00</time>
      </trkpt>
      <trkpt lat="43.75556" lon="3.7272">
        <ele>256</ele>
        <time>2021-10-19T15:55:45+02:00</time>
      </trkpt>
      <trkpt lat="43.75549" lon="3.72717">
        <ele>256</ele>
        <time>2021-10-19T15:55:50+02:00</time>
      </trkpt>
      <trkpt lat="43.75542" lon="3.72713">
        <ele>256</ele>
        <time>2021-10-19T15:55:55+02:00</time>
      </trkpt>
      <trkpt lat="43.75533" lon="3.72705">
        <ele>256</ele>
        <time>2021-10-19T15:56:00+02:00</time>
      </trkpt>
      <trkpt lat="43.75526" lon="3.72699">
        <ele>256</ele>
        <time>2021-10-19T15:56:05+02:00</time>
      </trkpt>
      <trkpt lat="43.75521" lon="3.72698">
        <ele>256</ele>
        <time>2021-10-19T15:56:10+02:00</time>
      </trkpt>
      <trkpt lat="43.75514" lon="3.72698">
        <ele>256</ele>
        <time>2021-10-19T15:56:15+02:00</time>
      </trkpt>
      <trkpt lat="43.75505" lon="3.72695">
        <ele>256</ele>
        <time>2021-10-19T15:56:20+02:00</time>
      </trkpt>
      <trkpt lat="43.75499" lon="3.7269">
        <ele>256</ele>
        <time>2021-10-19T15:56:25+02:00</time>
      </trkpt>
      <trkpt lat="43.75495" lon="3.72683">
        <ele>256</ele>
        <time>2021-10-19T15:56:30+02:00</time>
      </trkpt>
      <trkpt lat="43.7549" lon="3.72679">
        <ele>256</ele>
        <time>2021-10-19T15:56:35+02:00</time>
      </trkpt>
      <trkpt lat="43.75482" lon="3.72674">
        <ele>256</ele>
        <time>2021-10-19T15:56:40+02:00</time>
      </trkpt>
      <trkpt lat="43.75471" lon="3.72668">
        <ele>256</ele>
        <time>2021-10-19T15:56:45+02:00</time>
      </trkpt>
      <trkpt lat="43.75463" lon="3.72663">
        <ele>256</ele>
        <time>2021-10-19T15:56:50+02:00</time>
      </trkpt>
      <trkpt lat="43.75458" lon="3.7266">
        <ele>256</ele>
        <time>2021-10-19T15:56:55+02:00</time>
      </trkpt>
      <trkpt lat="43.75455" lon="3.72654">
        <ele>256</ele>
        <time>2021-10-19T15:57:00+02:00</time>
      </trkpt>
      <trkpt lat="43.75457" lon="3.72625">
        <ele>256</ele>
        <time>2021-10-19T15:57:05+02:00</time>
      </trkpt>
      <trkpt lat="43.75459" lon="3.72582">
        <ele>256</ele>
        <time>2021-10-19T15:57:10+02:00</time>
      </trkpt>
      <trkpt lat="43.75461" lon="3.72552">
        <ele>255</ele>
        <time>2021-10-19T15:57:15+02:00</time>
      </trkpt>
      <trkpt lat="43.75464" lon="3.72508">
        <ele>255</ele>
        <time>2021-10-19T15:57:20+02:00</time>
      </trkpt>
      <trkpt lat="43.75467" lon="3.72466">
        <ele>254</ele>
        <time>2021-10-19T15:57:25+02:00</time>
      </trkpt>
      <trkpt lat="43.75469" lon="3.72422">
        <ele>253</ele>
        <time>2021-10-19T15:57:30+02:00</time>
      </trkpt>
      <trkpt lat="43.75472" lon="3.72374">
        <ele>252</ele>
        <time>2021-10-19T15:57:35+02:00</time>
      </trkpt>
      <trkpt lat="43.75475" lon="3.72335">
        <ele>251</ele>
        <time>2021-10-19T15:57:40+02:00</time>
      </trkpt>
      <trkpt lat="43.75477" lon="3.72299">
        <ele>251</ele>
        <time>2021-10-19T15:57:45+02:00</time>
      </trkpt>
      <trkpt lat="43.75478" lon="3.72286">
        <ele>250</ele>
        <time>2021-10-19T15:57:50+02:00</time>
      </trkpt>
      <trkpt lat="43.75474" lon="3.72275">
        <ele>250</ele>
        <time>2021-10-19T15:57:55+02:00</time>
      </trkpt>
      <trkpt lat="43.75466" lon="3.72265">
        <ele>250</ele>
        <time>2021-10-19T15:58:00+02:00</time>
      </trkpt>
      <trkpt lat="43.75455" lon="3.72246">
        <ele>249</ele>
        <time>2021-10-19T15:58:05+02:00</time>
      </trkpt>
      <trkpt lat="43.75448" lon="3.72236">
        <ele>249</ele>
        <time>2021-10-19T15:58:10+02:00</time>
      </trkpt>
      <trkpt lat="43.75446" lon="3.72222">
        <ele>249</ele>
        <time>2021-10-19T15:58:15+02:00</time>
      </trkpt>
      <trkpt lat="43.75446" lon="3.72212">
        <ele>249</ele>
        <time>2021-10-19T15:58:20+02:00</time>
      </trkpt>
      <trkpt lat="43.75446" lon="3.72203">
        <ele>249</ele>
        <time>2021-10-19T15:58:25+02:00</time>
      </trkpt>
      <trkpt lat="43.75443" lon="3.72194">
        <ele>249</ele>
        <time>2021-10-19T15:58:30+02:00</time>
      </trkpt>
      <trkpt lat="43.75436" lon="3.72182">
        <ele>249</ele>
        <time>2021-10-19T15:58:35+02:00</time>
      </trkpt>
      <trkpt lat="43.75426" lon="3.72165">
        <ele>249</ele>
        <time>2021-10-19T15:58:40+02:00</time>
      </trkpt>
      <trkpt lat="43.75417" lon="3.72151">
        <ele>249</ele>
        <time>2021-10-19T15:58:45+02:00</time>
      </trkpt>
      <trkpt lat="43.75411" lon="3.7214">
        <ele>248</ele>
        <time>2021-10-19T15:58:50+02:00</time>
      </trkpt>
      <trkpt lat="43.75406" lon="3.72129">
        <ele>248</ele>
        <time>2021-10-19T15:58:55+02:00</time>
      </trkpt>
      <trkpt lat="43.75404" lon="3.72118">
        <ele>247</ele>
        <time>2021-10-19T15:59:00+02:00</time>
      </trkpt>
      <trkpt lat="43.75405" lon="3.72104">
        <ele>247</ele>
        <time>2021-10-19T15:59:05+02:00</time>
      </trkpt>
      <trkpt lat="43.75406" lon="3.72091">
        <ele>247</ele>
        <time>2021-10-19T15:59:10+02:00</time>
      </trkpt>
      <trkpt lat="43.75407" lon="3.72081">
        <ele>247</ele>
        <time>2021-10-19T15:59:15+02:00</time>
      </trkpt>
      <trkpt lat="43.75405" lon="3.7207">
        <ele>246</ele>
        <time>2021-10-19T15:59:20+02:00</time>
      </trkpt>
      <trkpt lat="43.75401" lon="3.72052">
        <ele>246</ele>
        <time>2021-10-19T15:59:25+02:00</time>
      </trkpt>
      <trkpt lat="43.75397" lon="3.72033">
        <ele>245</ele>
        <time>2021-10-19T15:59:30+02:00</time>
      </trkpt>
      <trkpt lat="43.75394" lon="3.72022">
        <ele>245</ele>
        <time>2021-10-19T15:59:35+02:00</time>
      </trkpt>
      <trkpt lat="43.75393" lon="3.72011">
        <ele>245</ele>
        <time>2021-10-19T15:59:40+02:00</time>
      </trkpt>
      <trkpt lat="43.75393" lon="3.71997">
        <ele>245</ele>
        <time>2021-10-19T15:59:45+02:00</time>
      </trkpt>
      <trkpt lat="43.75394" lon="3.71984">
        <ele>245</ele>
        <time>2021-10-19T15:59:50+02:00</time>
      </trkpt>
      <trkpt lat="43.75391" lon="3.71983">
        <ele>245</ele>
        <time>2021-10-19T15:59:55+02:00</time>
      </trkpt>
      <trkpt lat="43.75382" lon="3.71991">
        <ele>245</ele>
        <time>2021-10-19T16:00:00+02:00</time>
      </trkpt>
      <trkpt lat="43.75376" lon="3.71998">
        <ele>245</ele>
        <time>2021-10-19T16:00:05+02:00</time>
      </trkpt>
      <trkpt lat="43.75365" lon="3.72016">
        <ele>245</ele>
        <time>2021-10-19T16:00:10+02:00</time>
      </trkpt>
      <trkpt lat="43.75359" lon="3.72028">
        <ele>245</ele>
        <time>2021-10-19T16:00:15+02:00</time>
      </trkpt>
      <trkpt lat="43.75351" lon="3.72034">
        <ele>244</ele>
        <time>2021-10-19T16:00:20+02:00</time>
      </trkpt>
      <trkpt lat="43.75344" lon="3.72039">
        <ele>244</ele>
        <time>2021-10-19T16:00:25+02:00</time>
      </trkpt>
      <trkpt lat="43.75339" lon="3.72046">
        <ele>244</ele>
        <time>2021-10-19T16:00:30+02:00</time>
      </trkpt>
      <trkpt lat="43.75331" lon="3.72046">
        <ele>244</ele>
        <time>2021-10-19T16:00:35+02:00</time>
      </trkpt>
      <trkpt lat="43.75324" lon="3.72046">
        <ele>244</ele>
        <time>2021-10-19T16:00:40+02:00</time>
      </trkpt>
      <trkpt lat="43.75305" lon="3.72035">
        <ele>244</ele>
        <time>2021-10-19T16:00:45+02:00</time>
      </trkpt>
      <trkpt lat="43.75288" lon="3.72023">
        <ele>244</ele>
        <time>2021-10-19T16:00:50+02:00</time>
      </trkpt>
      <trkpt lat="43.75276" lon="3.72014">
        <ele>244</ele>
        <time>2021-10-19T16:00:55+02:00</time>
      </trkpt>
      <trkpt lat="43.75268" lon="3.71999">
        <ele>245</ele>
        <time>2021-10-19T16:01:00+02:00</time>
      </trkpt>
      <trkpt lat="43.7526" lon="3.71993">
        <ele>245</ele>
        <time>2021-10-19T16:01:05+02:00</time>
      </trkpt>
      <trkpt lat="43.7525" lon="3.71991">
        <ele>245</ele>
        <time>2021-10-19T16:01:10+02:00</time>
      </trkpt>
      <trkpt lat="43.75241" lon="3.71979">
        <ele>246</ele>
        <time>2021-10-19T16:01:15+02:00</time>
      </trkpt>
      <trkpt lat="43.75235" lon="3.71965">
        <ele>246</ele>
        <time>2021-10-19T16:01:20+02:00</time>
      </trkpt>
      <trkpt lat="43.75231" lon="3.71952">
        <ele>247</ele>
        <time>2021-10-19T16:01:25+02:00</time>
      </trkpt>
      <trkpt lat="43.7523" lon="3.7194">
        <ele>247</ele>
        <time>2021-10-19T16:01:30+02:00</time>
      </trkpt>
      <trkpt lat="43.75228" lon="3.71908">
        <ele>249</ele>
        <time>2021-10-19T16:01:35+02:00</time>
      </trkpt>
      <trkpt lat="43.7523" lon="3.71874">
        <ele>250</ele>
        <time>2021-10-19T16:01:40+02:00</time>
      </trkpt>
      <trkpt lat="43.75234" lon="3.71824">
        <ele>252</ele>
        <time>2021-10-19T16:01:45+02:00</time>
      </trkpt>
      <trkpt lat="43.75231" lon="3.71796">
        <ele>252</ele>
        <time>2021-10-19T16:01:50+02:00</time>
      </trkpt>
      <trkpt lat="43.75234" lon="3.71766">
        <ele>253</ele>
        <time>2021-10-19T16:01:55+02:00</time>
      </trkpt>
      <trkpt lat="43.75233" lon="3.71752">
        <ele>253</ele>
        <time>2021-10-19T16:02:00+02:00</time>
      </trkpt>
      <trkpt lat="43.75229" lon="3.71743">
        <ele>252</ele>
        <time>2021-10-19T16:02:05+02:00</time>
      </trkpt>
      <trkpt lat="43.75216" lon="3.7174">
        <ele>252</ele>
        <time>2021-10-19T16:02:10+02:00</time>
      </trkpt>
      <trkpt lat="43.75196" lon="3.71736">
        <ele>252</ele>
        <time>2021-10-19T16:02:15+02:00</time>
      </trkpt>
      <trkpt lat="43.75179" lon="3.71728">
        <ele>251</ele>
        <time>2021-10-19T16:02:20+02:00</time>
      </trkpt>
      <trkpt lat="43.75169" lon="3.71723">
        <ele>251</ele>
        <time>2021-10-19T16:02:25+02:00</time>
      </trkpt>
      <trkpt lat="43.7516" lon="3.71719">
        <ele>251</ele>
        <time>2021-10-19T16:02:30+02:00</time>
      </trkpt>
      <trkpt lat="43.7515" lon="3.7172">
        <ele>250</ele>
        <time>2021-10-19T16:02:35+02:00</time>
      </trkpt>
      <trkpt lat="43.75136" lon="3.71717">
        <ele>249</ele>
        <time>2021-10-19T16:02:40+02:00</time>
      </trkpt>
    </trkseg>
  </trk>
</gpx>